Observation data for Goodnight on 07/07/2020      Previous  Date  Next       Current Mesonet Observations  Soil Data  Daily Summary Page  Observations in Plain Language
KGO1 070500Z 17006KT 23/19 A3009 RMK A01 T02320194  RH  079%=      5-min Rain = 0
KGO1 070501Z 17006KT 23/19 A3009 RMK A01 T02320193  RH  079%=      5-min Rain = 0
KGO1 070502Z 17006KT 23/19 A3009 RMK A01 T02320194  RH  079%=      5-min Rain = 0
KGO1 070503Z 17006KT 23/19 A3009 RMK A01 T02320194  RH  079%=      5-min Rain = 0
KGO1 070504Z 18006KT 23/19 A3009 RMK A01 T02320194  RH  079%=      5-min Rain = 0
KGO1 070505Z 17007KT 23/19 A3009 RMK A01 T02320194  RH  079%=      5-min Rain = 0
KGO1 070506Z 17007KT 23/19 A3009 RMK A01 T02320194  RH  079%=      5-min Rain = 0
KGO1 070507Z 17007KT 23/19 A3009 RMK A01 T02320194  RH  079%=      5-min Rain = 0
KGO1 070508Z 17007KT 23/20 A3009 RMK A01 T02320195  RH  080%=      5-min Rain = 0
KGO1 070509Z 17007KT 23/20 A3009 RMK A01 T02320195  RH  080%=      5-min Rain = 0
KGO1 070510Z 16007KT 23/20 A3009 RMK A01 T02310195  RH  080%=      5-min Rain = 0
KGO1 070511Z 16007KT 23/20 A3009 RMK A01 T02310195  RH  080%=      5-min Rain = 0
KGO1 070512Z 16006KT 23/20 A3009 RMK A01 T02310195  RH  080%=      5-min Rain = 0
KGO1 070513Z 16006KT 23/20 A3009 RMK A01 T02310195  RH  080%=      5-min Rain = 0
KGO1 070514Z 16006KT 23/20 A3009 RMK A01 T02300195  RH  080%=      5-min Rain = 0
KGO1 070515Z 16006KT 23/20 A3009 RMK A01 T02300195  RH  081%=      5-min Rain = 0
KGO1 070516Z 16006KT 23/20 A3009 RMK A01 T02300195  RH  081%=      5-min Rain = 0
KGO1 070517Z 16006KT 23/20 A3009 RMK A01 T02300195  RH  081%=      5-min Rain = 0
KGO1 070518Z 16006KT 23/20 A3009 RMK A01 T02300195  RH  081%=      5-min Rain = 0
KGO1 070519Z 15006KT 23/20 A3009 RMK A01 T02300196  RH  081%=      5-min Rain = 0
KGO1 070520Z 15006KT 23/20 A3009 RMK A01 T02290195  RH  081%=      5-min Rain = 0
KGO1 070521Z 15007KT 23/20 A3009 RMK A01 T02280195  RH  082%=      5-min Rain = 0
KGO1 070522Z 15006KT 23/20 A3009 RMK A01 T02290196  RH  082%=      5-min Rain = 0
KGO1 070523Z 15007KT 23/20 A3009 RMK A01 T02280196  RH  082%=      5-min Rain = 0
KGO1 070524Z 15006KT 23/20 A3009 RMK A01 T02290196  RH  082%=      5-min Rain = 0
KGO1 070525Z 15006KT 23/20 A3009 RMK A01 T02300196  RH  082%=      5-min Rain = 0
KGO1 070526Z 15006KT 23/20 A3009 RMK A01 T02300196  RH  081%=      5-min Rain = 0
KGO1 070527Z 15006KT 23/20 A3009 RMK A01 T02300196  RH  081%=      5-min Rain = 0
KGO1 070528Z 15006KT 23/20 A3009 RMK A01 T02300197  RH  081%=      5-min Rain = 0
KGO1 070529Z 15006KT 23/20 A3009 RMK A01 T02300197  RH  082%=      5-min Rain = 0
KGO1 070530Z 15007KT 23/20 A3009 RMK A01 T02300197  RH  082%=      5-min Rain = 0
KGO1 070531Z 15007KT 23/20 A3009 RMK A01 T02300197  RH  082%=      5-min Rain = 0
KGO1 070532Z 15006KT 23/20 A3009 RMK A01 T02300197  RH  082%=      5-min Rain = 0
KGO1 070533Z 15007KT 23/20 A3009 RMK A01 T02300197  RH  082%=      5-min Rain = 0
KGO1 070534Z 15007KT 23/20 A3009 RMK A01 T02300197  RH  082%=      5-min Rain = 0
KGO1 070535Z 15008KT 23/20 A3009 RMK A01 T02300197  RH  082%=      5-min Rain = 0
KGO1 070536Z 15008KT 23/20 A3009 RMK A01 T02300197  RH  082%=      5-min Rain = 0
KGO1 070537Z 15008KT 23/20 A3009 RMK A01 T02310197  RH  082%=      5-min Rain = 0
KGO1 070538Z 15008KT 23/20 A3009 RMK A01 T02310197  RH  081%=      5-min Rain = 0
KGO1 070539Z 15007KT 23/20 A3009 RMK A01 T02310197  RH  081%=      5-min Rain = 0
KGO1 070540Z 15007KT 23/20 A3009 RMK A01 T02310197  RH  081%=      5-min Rain = 0
KGO1 070541Z 15006KT 23/20 A3009 RMK A01 T02310197  RH  081%=      5-min Rain = 0
KGO1 070542Z 15007KT 23/20 A3009 RMK A01 T02300197  RH  082%=      5-min Rain = 0
KGO1 070543Z 15007KT 23/20 A3009 RMK A01 T02300197  RH  082%=      5-min Rain = 0
KGO1 070544Z 15007KT 23/20 A3009 RMK A01 T02290197  RH  082%=      5-min Rain = 0
KGO1 070545Z 15007KT 23/20 A3009 RMK A01 T02290197  RH  082%=      5-min Rain = 0
KGO1 070546Z 14007KT 23/20 A3009 RMK A01 T02290197  RH  082%=      5-min Rain = 0
KGO1 070547Z 14009KT 23/20 A3009 RMK A01 T02290197  RH  082%=      5-min Rain = 0
KGO1 070548Z 15008KT 23/20 A3009 RMK A01 T02290197  RH  082%=      5-min Rain = 0
KGO1 070549Z 15008KT 23/20 A3009 RMK A01 T02290197  RH  082%=      5-min Rain = 0
KGO1 070550Z 15008KT 23/20 A3009 RMK A01 T02290198  RH  083%=      5-min Rain = 0
KGO1 070551Z 15008KT 23/20 A3009 RMK A01 T02290197  RH  082%=      5-min Rain = 0
KGO1 070552Z 15008KT 23/20 A3009 RMK A01 T02290197  RH  082%=      5-min Rain = 0
KGO1 070553Z 15008KT 23/20 A3009 RMK A01 T02290197  RH  082%=      5-min Rain = 0
KGO1 070554Z 15008KT 23/20 A3009 RMK A01 T02290197  RH  082%=      5-min Rain = 0
KGO1 070555Z 15008KT 23/20 A3009 RMK A01 T02290197  RH  082%=      5-min Rain = 0
KGO1 070556Z 15007KT 23/20 A3009 RMK A01 T02290197  RH  083%=      5-min Rain = 0
KGO1 070557Z 16007KT 23/20 A3009 RMK A01 T02280197  RH  083%=      5-min Rain = 0
KGO1 070558Z 16008KT 23/20 A3009 RMK A01 T02280197  RH  083%=      5-min Rain = 0
KGO1 070559Z 16008KT 23/20 A3009 RMK A01 T02280197  RH  083%=      5-min Rain = 0
KGO1 070600Z 16008KT 23/20 A3009 RMK A01 T02270197  RH  083%=      5-min Rain = 0
KGO1 070601Z 16007KT 23/20 A3009 RMK A01 T02270197  RH  083%=      5-min Rain = 0
KGO1 070602Z 16008KT 23/20 A3009 RMK A01 T02270197  RH  083%=      5-min Rain = 0
KGO1 070603Z 16008KT 23/20 A3009 RMK A01 T02270197  RH  084%=      5-min Rain = 0
KGO1 070604Z 15008KT 23/20 A3009 RMK A01 T02260197  RH  084%=      5-min Rain = 0
KGO1 070605Z 15008KT 23/20 A3008 RMK A01 T02260198  RH  084%=      5-min Rain = 0
KGO1 070606Z 15008KT 23/20 A3008 RMK A01 T02260197  RH  084%=      5-min Rain = 0
KGO1 070607Z 15008KT 23/20 A3008 RMK A01 T02260198  RH  084%=      5-min Rain = 0
KGO1 070608Z 15008KT 23/20 A3008 RMK A01 T02260198  RH  084%=      5-min Rain = 0
KGO1 070609Z 15008KT 23/20 A3008 RMK A01 T02260198  RH  084%=      5-min Rain = 0
KGO1 070610Z 16007KT 23/20 A3008 RMK A01 T02260198  RH  084%=      5-min Rain = 0
KGO1 070611Z 16007KT 23/20 A3008 RMK A01 T02260198  RH  084%=      5-min Rain = 0
KGO1 070612Z 16007KT 23/20 A3008 RMK A01 T02260198  RH  084%=      5-min Rain = 0
KGO1 070613Z 15007KT 23/20 A3008 RMK A01 T02250197  RH  084%=      5-min Rain = 0
KGO1 070614Z 15007KT 23/20 A3008 RMK A01 T02250198  RH  085%=      5-min Rain = 0
KGO1 070615Z 15008KT 22/20 A3008 RMK A01 T02240198  RH  085%=      5-min Rain = 0
KGO1 070616Z 15007KT 22/20 A3008 RMK A01 T02240197  RH  085%=      5-min Rain = 0
KGO1 070617Z 16007KT 22/20 A3008 RMK A01 T02240197  RH  085%=      5-min Rain = 0
KGO1 070618Z 16007KT 22/20 A3008 RMK A01 T02240197  RH  085%=      5-min Rain = 0
KGO1 070619Z 16007KT 22/20 A3008 RMK A01 T02240197  RH  085%=      5-min Rain = 0
KGO1 070620Z 17007KT 22/20 A3008 RMK A01 T02240197  RH  085%=      5-min Rain = 0
KGO1 070621Z 17007KT 22/20 A3008 RMK A01 T02240197  RH  085%=      5-min Rain = 0
KGO1 070622Z 17007KT 22/20 A3008 RMK A01 T02240197  RH  085%=      5-min Rain = 0
KGO1 070623Z 16007KT 22/20 A3008 RMK A01 T02240197  RH  085%=      5-min Rain = 0
KGO1 070624Z 17007KT 22/20 A3008 RMK A01 T02230197  RH  085%=      5-min Rain = 0
KGO1 070625Z 17007KT 22/20 A3008 RMK A01 T02230196  RH  085%=      5-min Rain = 0
KGO1 070626Z 17007KT 22/20 A3008 RMK A01 T02230196  RH  085%=      5-min Rain = 0
KGO1 070627Z 17007KT 22/20 A3008 RMK A01 T02240197  RH  085%=      5-min Rain = 0
KGO1 070628Z 17007KT 22/20 A3008 RMK A01 T02230197  RH  085%=      5-min Rain = 0
KGO1 070629Z 17007KT 22/20 A3008 RMK A01 T02230196  RH  085%=      5-min Rain = 0
KGO1 070630Z 17007KT 22/20 A3008 RMK A01 T02230196  RH  085%=      5-min Rain = 0
KGO1 070631Z 18007KT 22/20 A3008 RMK A01 T02220196  RH  085%=      5-min Rain = 0
KGO1 070632Z 18007KT 22/20 A3007 RMK A01 T02220196  RH  085%=      5-min Rain = 0
KGO1 070633Z 18007KT 22/20 A3007 RMK A01 T02210196  RH  086%=      5-min Rain = 0
KGO1 070634Z 18007KT 22/20 A3007 RMK A01 T02210196  RH  086%=      5-min Rain = 0
KGO1 070635Z 18007KT 22/20 A3007 RMK A01 T02210196  RH  086%=      5-min Rain = 0
KGO1 070636Z 18006KT 22/20 A3007 RMK A01 T02200196  RH  086%=      5-min Rain = 0
KGO1 070637Z 18007KT 22/20 A3007 RMK A01 T02200196  RH  086%=      5-min Rain = 0
KGO1 070638Z 18006KT 22/20 A3007 RMK A01 T02200196  RH  086%=      5-min Rain = 0
KGO1 070639Z 19006KT 22/20 A3007 RMK A01 T02200196  RH  086%=      5-min Rain = 0
KGO1 070640Z 19006KT 22/20 A3008 RMK A01 T02190196  RH  086%=      5-min Rain = 0
KGO1 070641Z 19006KT 22/20 A3008 RMK A01 T02190196  RH  086%=      5-min Rain = 0
KGO1 070642Z 19006KT 22/20 A3008 RMK A01 T02180195  RH  087%=      5-min Rain = 0
KGO1 070643Z 19006KT 22/20 A3008 RMK A01 T02180196  RH  087%=      5-min Rain = 0
KGO1 070644Z 19005KT 22/20 A3008 RMK A01 T02180195  RH  087%=      5-min Rain = 0
KGO1 070645Z 19005KT 22/20 A3008 RMK A01 T02180195  RH  087%=      5-min Rain = 0
KGO1 070646Z 19005KT 22/20 A3008 RMK A01 T02170195  RH  087%=      5-min Rain = 0
KGO1 070647Z 19005KT 22/20 A3008 RMK A01 T02170195  RH  087%=      5-min Rain = 0
KGO1 070648Z 19005KT 22/19 A3008 RMK A01 T02160194  RH  087%=      5-min Rain = 0
KGO1 070649Z 18004KT 22/19 A3008 RMK A01 T02160194  RH  087%=      5-min Rain = 0
KGO1 070650Z 18004KT 22/19 A3008 RMK A01 T02160194  RH  087%=      5-min Rain = 0
KGO1 070651Z 18004KT 22/19 A3008 RMK A01 T02160194  RH  088%=      5-min Rain = 0
KGO1 070652Z 18005KT 22/20 A3008 RMK A01 T02160195  RH  088%=      5-min Rain = 0
KGO1 070653Z 18005KT 22/19 A3008 RMK A01 T02160194  RH  088%=      5-min Rain = 0
KGO1 070654Z 18005KT 22/19 A3008 RMK A01 T02150194  RH  087%=      5-min Rain = 0
KGO1 070655Z 18005KT 22/19 A3008 RMK A01 T02150194  RH  088%=      5-min Rain = 0
KGO1 070656Z 18005KT 22/19 A3008 RMK A01 T02150193  RH  087%=      5-min Rain = 0
KGO1 070657Z 18005KT 22/19 A3008 RMK A01 T02150193  RH  088%=      5-min Rain = 0
KGO1 070658Z 18005KT 21/19 A3008 RMK A01 T02140193  RH  088%=      5-min Rain = 0
KGO1 070659Z 18005KT 21/19 A3008 RMK A01 T02140194  RH  088%=      5-min Rain = 0
KGO1 070700Z 18005KT 21/19 A3008 RMK A01 T02140193  RH  088%=      5-min Rain = 0
KGO1 070701Z 18005KT 21/19 A3008 RMK A01 T02140193  RH  088%=      5-min Rain = 0
KGO1 070702Z 17005KT 21/19 A3008 RMK A01 T02140193  RH  088%=      5-min Rain = 0
KGO1 070703Z 17005KT 21/19 A3008 RMK A01 T02140194  RH  088%=      5-min Rain = 0
KGO1 070704Z 17005KT 21/19 A3008 RMK A01 T02140194  RH  088%=      5-min Rain = 0
KGO1 070705Z 17005KT 21/19 A3008 RMK A01 T02140194  RH  088%=      5-min Rain = 0
KGO1 070706Z 17005KT 21/19 A3008 RMK A01 T02140194  RH  088%=      5-min Rain = 0
KGO1 070707Z 16005KT 22/19 A3008 RMK A01 T02150194  RH  088%=      5-min Rain = 0
KGO1 070708Z 17005KT 21/19 A3008 RMK A01 T02140194  RH  088%=      5-min Rain = 0
KGO1 070709Z 16005KT 21/19 A3008 RMK A01 T02140193  RH  088%=      5-min Rain = 0
KGO1 070710Z 16005KT 21/19 A3009 RMK A01 T02140194  RH  088%=      5-min Rain = 0
KGO1 070711Z 16005KT 21/19 A3009 RMK A01 T02140193  RH  088%=      5-min Rain = 0
KGO1 070712Z 16005KT 21/19 A3009 RMK A01 T02140193  RH  088%=      5-min Rain = 0
KGO1 070713Z 16005KT 21/19 A3009 RMK A01 T02140193  RH  088%=      5-min Rain = 0
KGO1 070714Z 16005KT 21/19 A3009 RMK A01 T02140193  RH  088%=      5-min Rain = 0
KGO1 070715Z 16004KT 21/19 A3009 RMK A01 T02140193  RH  088%=      5-min Rain = 0
KGO1 070716Z 16004KT 21/19 A3009 RMK A01 T02140193  RH  088%=      5-min Rain = 0
KGO1 070717Z 16004KT 21/19 A3009 RMK A01 T02140193  RH  088%=      5-min Rain = 0
KGO1 070718Z 16004KT 21/19 A3009 RMK A01 T02140193  RH  088%=      5-min Rain = 0
KGO1 070719Z 16004KT 21/19 A3009 RMK A01 T02140193  RH  088%=      5-min Rain = 0
KGO1 070720Z 16004KT 21/19 A3009 RMK A01 T02140193  RH  088%=      5-min Rain = 0
KGO1 070721Z 16004KT 21/19 A3008 RMK A01 T02140193  RH  088%=      5-min Rain = 0
KGO1 070722Z 16004KT 21/19 A3008 RMK A01 T02140193  RH  088%=      5-min Rain = 0
KGO1 070723Z 17004KT 21/19 A3008 RMK A01 T02140193  RH  088%=      5-min Rain = 0
KGO1 070724Z 17004KT 21/19 A3008 RMK A01 T02140193  RH  088%=      5-min Rain = 0
KGO1 070725Z 17004KT 21/19 A3008 RMK A01 T02130193  RH  088%=      5-min Rain = 0
KGO1 070726Z 18004KT 21/19 A3008 RMK A01 T02130193  RH  088%=      5-min Rain = 0
KGO1 070727Z 18004KT 21/19 A3008 RMK A01 T02130193  RH  088%=      5-min Rain = 0
KGO1 070728Z 18004KT 21/19 A3008 RMK A01 T02130193  RH  088%=      5-min Rain = 0
KGO1 070729Z 18004KT 21/19 A3008 RMK A01 T02130193  RH  088%=      5-min Rain = 0
KGO1 070730Z 18004KT 21/19 A3008 RMK A01 T02130193  RH  088%=      5-min Rain = 0
KGO1 070731Z 17004KT 21/19 A3008 RMK A01 T02130193  RH  088%=      5-min Rain = 0
KGO1 070732Z 16004KT 21/19 A3008 RMK A01 T02130193  RH  088%=      5-min Rain = 0
KGO1 070733Z 16003KT 21/19 A3009 RMK A01 T02130192  RH  088%=      5-min Rain = 0
KGO1 070734Z 16003KT 21/19 A3009 RMK A01 T02120191  RH  088%=      5-min Rain = 0
KGO1 070735Z 16004KT 21/19 A3009 RMK A01 T02110192  RH  089%=      5-min Rain = 0
KGO1 070736Z 16004KT 21/19 A3009 RMK A01 T02100192  RH  089%=      5-min Rain = 0
KGO1 070737Z 16004KT 21/19 A3008 RMK A01 T02100192  RH  089%=      5-min Rain = 0
KGO1 070738Z 16003KT 21/19 A3008 RMK A01 T02100192  RH  089%=      5-min Rain = 0
KGO1 070739Z 16003KT 21/19 A3008 RMK A01 T02100192  RH  089%=      5-min Rain = 0
KGO1 070740Z 17003KT 21/19 A3008 RMK A01 T02100191  RH  089%=      5-min Rain = 0
KGO1 070741Z 17003KT 21/19 A3008 RMK A01 T02100192  RH  089%=      5-min Rain = 0
KGO1 070742Z 17004KT 21/19 A3008 RMK A01 T02100192  RH  090%=      5-min Rain = 0
KGO1 070743Z 17004KT 21/19 A3008 RMK A01 T02100191  RH  089%=      5-min Rain = 0
KGO1 070744Z 18004KT 21/19 A3008 RMK A01 T02090191  RH  089%=      5-min Rain = 0
KGO1 070745Z 19004KT 21/19 A3008 RMK A01 T02090191  RH  090%=      5-min Rain = 0
KGO1 070746Z 19004KT 21/19 A3008 RMK A01 T02080190  RH  090%=      5-min Rain = 0
KGO1 070747Z 21004KT 21/19 A3008 RMK A01 T02070190  RH  090%=      5-min Rain = 0
KGO1 070748Z 21004KT 21/19 A3008 RMK A01 T02060190  RH  091%=      5-min Rain = 0
KGO1 070749Z 20004KT 21/19 A3008 RMK A01 T02050190  RH  091%=      5-min Rain = 0
KGO1 070750Z 20003KT 21/19 A3008 RMK A01 T02050190  RH  091%=      5-min Rain = 0
KGO1 070751Z 20003KT 21/19 A3008 RMK A01 T02050191  RH  092%=      5-min Rain = 0
KGO1 070752Z 20004KT 21/19 A3008 RMK A01 T02050191  RH  092%=      5-min Rain = 0
KGO1 070753Z 19004KT 21/19 A3008 RMK A01 T02060191  RH  092%=      5-min Rain = 0
KGO1 070754Z 19004KT 21/19 A3008 RMK A01 T02060191  RH  091%=      5-min Rain = 0
KGO1 070755Z 19004KT 21/19 A3008 RMK A01 T02060191  RH  091%=      5-min Rain = 0
KGO1 070756Z 18004KT 21/19 A3008 RMK A01 T02060191  RH  091%=      5-min Rain = 0
KGO1 070757Z 18004KT 21/19 A3008 RMK A01 T02060191  RH  091%=      5-min Rain = 0
KGO1 070758Z 18003KT 21/19 A3008 RMK A01 T02060191  RH  091%=      5-min Rain = 0
KGO1 070759Z 18003KT 21/19 A3008 RMK A01 T02060191  RH  091%=      5-min Rain = 0
KGO1 070800Z 18003KT 21/19 A3008 RMK A01 T02060191  RH  091%=      5-min Rain = 0
KGO1 070801Z 17003KT 21/19 A3008 RMK A01 T02060191  RH  091%=      5-min Rain = 0
KGO1 070802Z 18003KT 21/19 A3008 RMK A01 T02050190  RH  091%=      5-min Rain = 0
KGO1 070803Z 18003KT 21/19 A3008 RMK A01 T02050190  RH  091%=      5-min Rain = 0
KGO1 070804Z 18003KT 20/19 A3008 RMK A01 T02040190  RH  092%=      5-min Rain = 0
KGO1 070805Z 18003KT 20/19 A3008 RMK A01 T02040190  RH  092%=      5-min Rain = 0
KGO1 070806Z 18002KT 20/19 A3008 RMK A01 T02030191  RH  092%=      5-min Rain = 0
KGO1 070807Z 18002KT 20/19 A3008 RMK A01 T02030191  RH  093%=      5-min Rain = 0
KGO1 070808Z 19002KT 20/19 A3008 RMK A01 T02020190  RH  093%=      5-min Rain = 0
KGO1 070809Z 19002KT 20/19 A3008 RMK A01 T02020190  RH  093%=      5-min Rain = 0
KGO1 070810Z 19001KT 20/19 A3008 RMK A01 T02010190  RH  093%=      5-min Rain = 0
KGO1 070811Z 19001KT 20/19 A3008 RMK A01 T02010190  RH  094%=      5-min Rain = 0
KGO1 070812Z 19000KT 20/19 A3008 RMK A01 T02010190  RH  094%=      5-min Rain = 0
KGO1 070813Z 00000KT 20/19 A3008 RMK A01 T02010191  RH  094%=      5-min Rain = 0
KGO1 070814Z 00000KT 20/19 A3008 RMK A01 T02000190  RH  094%=      5-min Rain = 0
KGO1 070815Z 00000KT 20/19 A3008 RMK A01 T02010191  RH  094%=      5-min Rain = 0
KGO1 070816Z 00000KT 20/19 A3008 RMK A01 T02010192  RH  094%=      5-min Rain = 0
KGO1 070817Z 00000KT 20/19 A3008 RMK A01 T02030192  RH  094%=      5-min Rain = 0
KGO1 070818Z 00000KT 20/19 A3008 RMK A01 T02030192  RH  093%=      5-min Rain = 0
KGO1 070819Z 00000KT 20/19 A3008 RMK A01 T02040192  RH  093%=      5-min Rain = 0
KGO1 070820Z 00000KT 20/19 A3008 RMK A01 T02040193  RH  093%=      5-min Rain = 0
KGO1 070821Z 00000KT 20/19 A3008 RMK A01 T02040192  RH  093%=      5-min Rain = 0
KGO1 070822Z 00000KT 21/19 A3008 RMK A01 T02050192  RH  093%=      5-min Rain = 0
KGO1 070823Z 00000KT 21/19 A3009 RMK A01 T02050192  RH  093%=      5-min Rain = 0
KGO1 070824Z 00000KT 21/19 A3008 RMK A01 T02050192  RH  093%=      5-min Rain = 0
KGO1 070825Z 00000KT 20/19 A3008 RMK A01 T02040192  RH  093%=      5-min Rain = 0
KGO1 070826Z 00000KT 21/19 A3008 RMK A01 T02050192  RH  093%=      5-min Rain = 0
KGO1 070827Z 00000KT 21/19 A3008 RMK A01 T02050193  RH  093%=      5-min Rain = 0
KGO1 070828Z 00000KT 21/19 A3008 RMK A01 T02050193  RH  093%=      5-min Rain = 0
KGO1 070829Z 00000KT 21/19 A3008 RMK A01 T02050192  RH  093%=      5-min Rain = 0
KGO1 070830Z 00000KT 21/19 A3009 RMK A01 T02050192  RH  092%=      5-min Rain = 0
KGO1 070831Z 00000KT 21/19 A3009 RMK A01 T02050192  RH  092%=      5-min Rain = 0
KGO1 070832Z 00000KT 21/19 A3009 RMK A01 T02050192  RH  092%=      5-min Rain = 0
KGO1 070833Z 12000KT 21/19 A3009 RMK A01 T02050192  RH  092%=      5-min Rain = 0
KGO1 070834Z 11001KT 20/19 A3009 RMK A01 T02040192  RH  092%=      5-min Rain = 0
KGO1 070835Z 12002KT 20/19 A3009 RMK A01 T02040191  RH  092%=      5-min Rain = 0
KGO1 070836Z 13001KT 20/19 A3009 RMK A01 T02040192  RH  093%=      5-min Rain = 0
KGO1 070837Z 14001KT 20/19 A3009 RMK A01 T02030192  RH  093%=      5-min Rain = 0
KGO1 070838Z 15002KT 20/19 A3009 RMK A01 T02030191  RH  093%=      5-min Rain = 0
KGO1 070839Z 15001KT 20/19 A3008 RMK A01 T02030192  RH  093%=      5-min Rain = 0
KGO1 070840Z 15001KT 20/19 A3009 RMK A01 T02020192  RH  094%=      5-min Rain = 0
KGO1 070841Z 15002KT 20/19 A3009 RMK A01 T02020192  RH  094%=      5-min Rain = 0
KGO1 070842Z 14002KT 20/19 A3009 RMK A01 T02020192  RH  094%=      5-min Rain = 0
KGO1 070843Z 14002KT 20/19 A3009 RMK A01 T02020192  RH  094%=      5-min Rain = 0
KGO1 070844Z 13002KT 20/19 A3009 RMK A01 T02020193  RH  095%=      5-min Rain = 0
KGO1 070845Z 12002KT 20/19 A3009 RMK A01 T02020193  RH  095%=      5-min Rain = 0
KGO1 070846Z 11002KT 20/19 A3009 RMK A01 T02020193  RH  094%=      5-min Rain = 0
KGO1 070847Z 11001KT 20/19 A3009 RMK A01 T02010191  RH  094%=      5-min Rain = 0
KGO1 070848Z 11001KT 20/19 A3009 RMK A01 T02010190  RH  094%=      5-min Rain = 0
KGO1 070849Z 10001KT 20/19 A3009 RMK A01 T01990189  RH  094%=      5-min Rain = 0
KGO1 070850Z 10002KT 20/19 A3009 RMK A01 T01970189  RH  095%=      5-min Rain = 0
KGO1 070851Z 10002KT 20/19 A3009 RMK A01 T01970190  RH  096%=      5-min Rain = 0
KGO1 070852Z 11002KT 20/19 A3009 RMK A01 T01960190  RH  096%=      5-min Rain = 0
KGO1 070853Z 12002KT 20/19 A3009 RMK A01 T01960191  RH  096%=      5-min Rain = 0
KGO1 070854Z 12002KT 20/19 A3009 RMK A01 T01960191  RH  097%=      5-min Rain = 0
KGO1 070855Z 12002KT 20/19 A3009 RMK A01 T01960191  RH  097%=      5-min Rain = 0
KGO1 070856Z 12002KT 20/19 A3009 RMK A01 T01970191  RH  096%=      5-min Rain = 0
KGO1 070857Z 11002KT 20/19 A3009 RMK A01 T01970191  RH  096%=      5-min Rain = 0
KGO1 070858Z 10002KT 20/19 A3009 RMK A01 T01970191  RH  096%=      5-min Rain = 0
KGO1 070859Z 09002KT 20/19 A3009 RMK A01 T01980190  RH  096%=      5-min Rain = 0
KGO1 070900Z 08002KT 20/19 A3009 RMK A01 T01970189  RH  095%=      5-min Rain = 0
KGO1 070901Z 08002KT 20/19 A3009 RMK A01 T01980188  RH  094%=      5-min Rain = 0
KGO1 070902Z 07002KT 20/19 A3009 RMK A01 T01980188  RH  094%=      5-min Rain = 0
KGO1 070903Z 04003KT 20/19 A3009 RMK A01 T01980186  RH  093%=      5-min Rain = 0
KGO1 070904Z 04002KT 20/18 A3009 RMK A01 T01990184  RH  091%=      5-min Rain = 0
KGO1 070905Z 04003KT 20/19 A3009 RMK A01 T01980186  RH  092%=      5-min Rain = 0
KGO1 070906Z 05003KT 20/19 A3009 RMK A01 T01980186  RH  093%=      5-min Rain = 0
KGO1 070907Z 05003KT 20/19 A3009 RMK A01 T01980187  RH  093%=      5-min Rain = 0
KGO1 070908Z 06003KT 20/19 A3009 RMK A01 T01980187  RH  093%=      5-min Rain = 0
KGO1 070909Z 07003KT 20/19 A3009 RMK A01 T01980186  RH  093%=      5-min Rain = 0
KGO1 070910Z 07004KT 20/19 A3009 RMK A01 T01990187  RH  093%=      5-min Rain = 0
KGO1 070911Z 08004KT 20/19 A3009 RMK A01 T01990187  RH  093%=      5-min Rain = 0
KGO1 070912Z 08003KT 20/19 A3009 RMK A01 T01990187  RH  093%=      5-min Rain = 0
KGO1 070913Z 08003KT 20/19 A3009 RMK A01 T01990187  RH  093%=      5-min Rain = 0
KGO1 070914Z 08003KT 20/19 A3009 RMK A01 T01990188  RH  093%=      5-min Rain = 0
KGO1 070915Z 07003KT 20/19 A3009 RMK A01 T02000189  RH  093%=      5-min Rain = 0
KGO1 070916Z 06003KT 20/19 A3009 RMK A01 T02000188  RH  093%=      5-min Rain = 0
KGO1 070917Z 06004KT 20/19 A3009 RMK A01 T02000188  RH  092%=      5-min Rain = 0
KGO1 070918Z 06004KT 20/19 A3009 RMK A01 T02000188  RH  092%=      5-min Rain = 0
KGO1 070919Z 05004KT 20/19 A3009 RMK A01 T02000188  RH  092%=      5-min Rain = 0
KGO1 070920Z 05003KT 20/19 A3009 RMK A01 T02010188  RH  092%=      5-min Rain = 0
KGO1 070921Z 04003KT 20/19 A3009 RMK A01 T02000188  RH  093%=      5-min Rain = 0
KGO1 070922Z 04002KT 20/19 A3009 RMK A01 T01990187  RH  093%=      5-min Rain = 0
KGO1 070923Z 04002KT 20/19 A3008 RMK A01 T01990187  RH  093%=      5-min Rain = 0
KGO1 070924Z 05002KT 20/19 A3008 RMK A01 T01980187  RH  093%=      5-min Rain = 0
KGO1 070925Z 06002KT 20/19 A3008 RMK A01 T01970187  RH  094%=      5-min Rain = 0
KGO1 070926Z 05002KT 20/19 A3008 RMK A01 T01970187  RH  094%=      5-min Rain = 0
KGO1 070927Z 05001KT 20/19 A3008 RMK A01 T01960187  RH  094%=      5-min Rain = 0
KGO1 070928Z 04001KT 20/19 A3008 RMK A01 T01960188  RH  095%=      5-min Rain = 0
KGO1 070929Z 04001KT 20/19 A3008 RMK A01 T01960188  RH  095%=      5-min Rain = 0
KGO1 070930Z 04002KT 20/19 A3008 RMK A01 T01960189  RH  095%=      5-min Rain = 0
KGO1 070931Z 03002KT 20/19 A3008 RMK A01 T01960189  RH  095%=      5-min Rain = 0
KGO1 070932Z 03002KT 20/19 A3008 RMK A01 T01970189  RH  095%=      5-min Rain = 0
KGO1 070933Z 02002KT 20/19 A3009 RMK A01 T01960188  RH  095%=      5-min Rain = 0
KGO1 070934Z 02002KT 20/19 A3009 RMK A01 T01960189  RH  095%=      5-min Rain = 0
KGO1 070935Z 01002KT 20/19 A3009 RMK A01 T01960189  RH  096%=      5-min Rain = 0
KGO1 070936Z 01002KT 20/19 A3008 RMK A01 T01960189  RH  095%=      5-min Rain = 0
KGO1 070937Z 01002KT 20/19 A3008 RMK A01 T01960189  RH  095%=      5-min Rain = 0
KGO1 070938Z 00002KT 20/19 A3008 RMK A01 T01960189  RH  096%=      5-min Rain = 0
KGO1 070939Z 35001KT 20/19 A3008 RMK A01 T01960189  RH  096%=      5-min Rain = 0
KGO1 070940Z 35001KT 20/19 A3008 RMK A01 T01950188  RH  096%=      5-min Rain = 0
KGO1 070941Z 34001KT 20/19 A3008 RMK A01 T01950188  RH  096%=      5-min Rain = 0
KGO1 070942Z 33001KT 20/19 A3008 RMK A01 T01950188  RH  095%=      5-min Rain = 0
KGO1 070943Z 32001KT 19/19 A3008 RMK A01 T01940186  RH  095%=      5-min Rain = 0
KGO1 070944Z 33001KT 19/19 A3008 RMK A01 T01940186  RH  095%=      5-min Rain = 0
KGO1 070945Z 33000KT 19/19 A3008 RMK A01 T01930185  RH  095%=      5-min Rain = 0
KGO1 070946Z 00000KT 19/19 A3008 RMK A01 T01930185  RH  095%=      5-min Rain = 0
KGO1 070947Z 00000KT 19/19 A3008 RMK A01 T01930186  RH  095%=      5-min Rain = 0
KGO1 070948Z 00000KT 19/19 A3008 RMK A01 T01930186  RH  096%=      5-min Rain = 0
KGO1 070949Z 00000KT 19/19 A3008 RMK A01 T01930186  RH  096%=      5-min Rain = 0
KGO1 070950Z 00000KT 19/19 A3008 RMK A01 T01930186  RH  096%=      5-min Rain = 0
KGO1 070951Z 00000KT 19/19 A3008 RMK A01 T01930185  RH  095%=      5-min Rain = 0
KGO1 070952Z 00000KT 19/19 A3008 RMK A01 T01930186  RH  095%=      5-min Rain = 0
KGO1 070953Z 00000KT 19/19 A3008 RMK A01 T01940187  RH  096%=      5-min Rain = 0
KGO1 070954Z 00000KT 19/19 A3008 RMK A01 T01940187  RH  095%=      5-min Rain = 0
KGO1 070955Z 00000KT 19/19 A3009 RMK A01 T01940186  RH  095%=      5-min Rain = 0
KGO1 070956Z 00000KT 19/19 A3009 RMK A01 T01940185  RH  094%=      5-min Rain = 0
KGO1 070957Z 00000KT 19/18 A3009 RMK A01 T01930183  RH  094%=      5-min Rain = 0
KGO1 070958Z 00000KT 19/18 A3009 RMK A01 T01930183  RH  094%=      5-min Rain = 0
KGO1 070959Z 00000KT 19/18 A3009 RMK A01 T01920183  RH  094%=      5-min Rain = 0
KGO1 071000Z 00000KT 19/18 A3009 RMK A01 T01920183  RH  095%=      5-min Rain = 0
KGO1 071001Z 00000KT 19/18 A3009 RMK A01 T01920183  RH  095%=      5-min Rain = 0
KGO1 071002Z 00000KT 19/18 A3009 RMK A01 T01910183  RH  095%=      5-min Rain = 0
KGO1 071003Z 00000KT 19/18 A3009 RMK A01 T01910182  RH  095%=      5-min Rain = 0
KGO1 071004Z 00000KT 19/18 A3009 RMK A01 T01910182  RH  094%=      5-min Rain = 0
KGO1 071005Z 00000KT 19/18 A3009 RMK A01 T01900181  RH  094%=      5-min Rain = 0
KGO1 071006Z 00000KT 19/18 A3009 RMK A01 T01900181  RH  095%=      5-min Rain = 0
KGO1 071007Z 00000KT 19/18 A3009 RMK A01 T01900181  RH  095%=      5-min Rain = 0
KGO1 071008Z 00000KT 19/18 A3009 RMK A01 T01900182  RH  095%=      5-min Rain = 0
KGO1 071009Z 00000KT 19/18 A3009 RMK A01 T01900181  RH  095%=      5-min Rain = 0
KGO1 071010Z 00000KT 19/18 A3009 RMK A01 T01890181  RH  095%=      5-min Rain = 0
KGO1 071011Z 00000KT 19/18 A3009 RMK A01 T01890181  RH  095%=      5-min Rain = 0
KGO1 071012Z 00000KT 19/18 A3009 RMK A01 T01880180  RH  095%=      5-min Rain = 0
KGO1 071013Z 30000KT 19/18 A3009 RMK A01 T01890181  RH  095%=      5-min Rain = 0
KGO1 071014Z 00000KT 19/18 A3009 RMK A01 T01880180  RH  095%=      5-min Rain = 0
KGO1 071015Z 00000KT 19/18 A3009 RMK A01 T01880180  RH  095%=      5-min Rain = 0
KGO1 071016Z 00000KT 19/18 A3009 RMK A01 T01870180  RH  095%=      5-min Rain = 0
KGO1 071017Z 00000KT 19/18 A3009 RMK A01 T01870180  RH  095%=      5-min Rain = 0
KGO1 071018Z 00000KT 19/18 A3009 RMK A01 T01870180  RH  095%=      5-min Rain = 0
KGO1 071019Z 00000KT 19/18 A3009 RMK A01 T01870180  RH  095%=      5-min Rain = 0
KGO1 071020Z 00000KT 19/18 A3009 RMK A01 T01870180  RH  096%=      5-min Rain = 0
KGO1 071021Z 00000KT 19/18 A3009 RMK A01 T01870180  RH  096%=      5-min Rain = 0
KGO1 071022Z 00000KT 19/18 A3009 RMK A01 T01870180  RH  096%=      5-min Rain = 0
KGO1 071023Z 00000KT 19/18 A3009 RMK A01 T01870182  RH  096%=      5-min Rain = 0
KGO1 071024Z 00000KT 19/18 A3009 RMK A01 T01880182  RH  096%=      5-min Rain = 0
KGO1 071025Z 00000KT 19/18 A3009 RMK A01 T01880181  RH  096%=      5-min Rain = 0
KGO1 071026Z 00000KT 19/18 A3009 RMK A01 T01890182  RH  096%=      5-min Rain = 0
KGO1 071027Z 00000KT 19/18 A3009 RMK A01 T01900182  RH  095%=      5-min Rain = 0
KGO1 071028Z 00000KT 19/18 A3009 RMK A01 T01900181  RH  095%=      5-min Rain = 0
KGO1 071029Z 00000KT 19/18 A3009 RMK A01 T01900181  RH  094%=      5-min Rain = 0
KGO1 071030Z 00000KT 19/18 A3009 RMK A01 T01900180  RH  094%=      5-min Rain = 0
KGO1 071031Z 00000KT 19/18 A3009 RMK A01 T01900181  RH  095%=      5-min Rain = 0
KGO1 071032Z 00000KT 19/18 A3009 RMK A01 T01900182  RH  095%=      5-min Rain = 0
KGO1 071033Z 00000KT 19/18 A3009 RMK A01 T01910182  RH  095%=      5-min Rain = 0
KGO1 071034Z 00000KT 19/18 A3009 RMK A01 T01910183  RH  095%=      5-min Rain = 0
KGO1 071035Z 00000KT 19/18 A3009 RMK A01 T01910182  RH  095%=      5-min Rain = 0
KGO1 071036Z 00000KT 19/18 A3009 RMK A01 T01920182  RH  094%=      5-min Rain = 0
KGO1 071037Z 00000KT 19/18 A3009 RMK A01 T01920182  RH  094%=      5-min Rain = 0
KGO1 071038Z 00000KT 19/18 A3009 RMK A01 T01920182  RH  094%=      5-min Rain = 0
KGO1 071039Z 00000KT 19/18 A301 RMK A01 T01920182  RH  094%=      5-min Rain = 0
KGO1 071040Z 00000KT 19/18 A301 RMK A01 T01920183  RH  095%=      5-min Rain = 0
KGO1 071041Z 00000KT 19/18 A301 RMK A01 T01920183  RH  095%=      5-min Rain = 0
KGO1 071042Z 00000KT 19/18 A301 RMK A01 T01920183  RH  094%=      5-min Rain = 0
KGO1 071043Z 00000KT 19/18 A301 RMK A01 T01910181  RH  094%=      5-min Rain = 0
KGO1 071044Z 00000KT 19/18 A301 RMK A01 T01900180  RH  094%=      5-min Rain = 0
KGO1 071045Z 00000KT 19/18 A301 RMK A01 T01900180  RH  094%=      5-min Rain = 0
KGO1 071046Z 00000KT 19/18 A301 RMK A01 T01890179  RH  094%=      5-min Rain = 0
KGO1 071047Z 00000KT 19/18 A301 RMK A01 T01880177  RH  094%=      5-min Rain = 0
KGO1 071048Z 00000KT 19/18 A301 RMK A01 T01870177  RH  094%=      5-min Rain = 0
KGO1 071049Z 00000KT 19/18 A301 RMK A01 T01870178  RH  095%=      5-min Rain = 0
KGO1 071050Z 00000KT 19/18 A301 RMK A01 T01870179  RH  095%=      5-min Rain = 0
KGO1 071051Z 00000KT 19/18 A301 RMK A01 T01860179  RH  095%=      5-min Rain = 0
KGO1 071052Z 00000KT 19/18 A301 RMK A01 T01870179  RH  095%=      5-min Rain = 0
KGO1 071053Z 00000KT 19/18 A301 RMK A01 T01870180  RH  096%=      5-min Rain = 0
KGO1 071054Z 00000KT 19/18 A301 RMK A01 T01870180  RH  096%=      5-min Rain = 0
KGO1 071055Z 31001KT 19/18 A301 RMK A01 T01870181  RH  096%=      5-min Rain = 0
KGO1 071056Z 31001KT 19/18 A301 RMK A01 T01870181  RH  096%=      5-min Rain = 0
KGO1 071057Z 31001KT 19/18 A301 RMK A01 T01880181  RH  096%=      5-min Rain = 0
KGO1 071058Z 31001KT 19/18 A301 RMK A01 T01880180  RH  096%=      5-min Rain = 0
KGO1 071059Z 31001KT 19/18 A301 RMK A01 T01880181  RH  096%=      5-min Rain = 0
KGO1 071100Z 31001KT 19/18 A301 RMK A01 T01870181  RH  096%=      5-min Rain = 0
KGO1 071101Z 31001KT 19/18 A301 RMK A01 T01870181  RH  096%=      5-min Rain = 0
KGO1 071102Z 31001KT 19/18 A301 RMK A01 T01870181  RH  096%=      5-min Rain = 0
KGO1 071103Z 32001KT 19/18 A301 RMK A01 T01880182  RH  096%=      5-min Rain = 0
KGO1 071104Z 32001KT 19/18 A301 RMK A01 T01880182  RH  096%=      5-min Rain = 0
KGO1 071105Z 31002KT 19/18 A301 RMK A01 T01880183  RH  096%=      5-min Rain = 0
KGO1 071106Z 31002KT 19/18 A301 RMK A01 T01890183  RH  096%=      5-min Rain = 0
KGO1 071107Z 30002KT 19/18 A301 RMK A01 T01890183  RH  096%=      5-min Rain = 0
KGO1 071108Z 30002KT 19/18 A301 RMK A01 T01890182  RH  096%=      5-min Rain = 0
KGO1 071109Z 30002KT 19/18 A301 RMK A01 T01890182  RH  096%=      5-min Rain = 0
KGO1 071110Z 30002KT 19/18 A301 RMK A01 T01890182  RH  096%=      5-min Rain = 0
KGO1 071111Z 30002KT 19/18 A301 RMK A01 T01890182  RH  095%=      5-min Rain = 0
KGO1 071112Z 29002KT 19/18 A301 RMK A01 T01890180  RH  095%=      5-min Rain = 0
KGO1 071113Z 29002KT 19/18 A301 RMK A01 T01880179  RH  095%=      5-min Rain = 0
KGO1 071114Z 28002KT 19/18 A301 RMK A01 T01880180  RH  095%=      5-min Rain = 0
KGO1 071115Z 27002KT 19/18 A301 RMK A01 T01870180  RH  095%=      5-min Rain = 0
KGO1 071116Z 27002KT 19/18 A301 RMK A01 T01870180  RH  095%=      5-min Rain = 0
KGO1 071117Z 26002KT 19/18 A301 RMK A01 T01880180  RH  096%=      5-min Rain = 0
KGO1 071118Z 26002KT 19/18 A301 RMK A01 T01880180  RH  095%=      5-min Rain = 0
KGO1 071119Z 26002KT 19/18 A301 RMK A01 T01870180  RH  095%=      5-min Rain = 0
KGO1 071120Z 26002KT 19/18 A301 RMK A01 T01880180  RH  095%=      5-min Rain = 0
KGO1 071121Z 27001KT 19/18 A301 RMK A01 T01880180  RH  095%=      5-min Rain = 0
KGO1 071122Z 28002KT 19/18 A301 RMK A01 T01880180  RH  095%=      5-min Rain = 0
KGO1 071123Z 28002KT 19/18 A301 RMK A01 T01870179  RH  095%=      5-min Rain = 0
KGO1 071124Z 28002KT 19/18 A301 RMK A01 T01870179  RH  095%=      5-min Rain = 0
KGO1 071125Z 28002KT 19/18 A301 RMK A01 T01860177  RH  095%=      5-min Rain = 0
KGO1 071126Z 28002KT 19/18 A301 RMK A01 T01860177  RH  095%=      5-min Rain = 0
KGO1 071127Z 28002KT 19/18 A301 RMK A01 T01850176  RH  095%=      5-min Rain = 0
KGO1 071128Z 28002KT 18/18 A301 RMK A01 T01840176  RH  095%=      5-min Rain = 0
KGO1 071129Z 28002KT 18/18 A301 RMK A01 T01840176  RH  095%=      5-min Rain = 0
KGO1 071130Z 28002KT 18/18 A301 RMK A01 T01830176  RH  096%=      5-min Rain = 0
KGO1 071131Z 28001KT 18/18 A301 RMK A01 T01830177  RH  096%=      5-min Rain = 0
KGO1 071132Z 28001KT 18/18 A301 RMK A01 T01830177  RH  096%=      5-min Rain = 0
KGO1 071133Z 28001KT 18/18 A3009 RMK A01 T01840178  RH  096%=      5-min Rain = 0
KGO1 071134Z 28000KT 18/18 A3009 RMK A01 T01840178  RH  096%=      5-min Rain = 0
KGO1 071135Z 00000KT 18/18 A3009 RMK A01 T01840178  RH  096%=      5-min Rain = 0
KGO1 071136Z 00000KT 18/18 A3009 RMK A01 T01840178  RH  096%=      5-min Rain = 0
KGO1 071137Z 00000KT 18/18 A3009 RMK A01 T01840178  RH  096%=      5-min Rain = 0
KGO1 071138Z 00000KT 18/18 A3009 RMK A01 T01840178  RH  096%=      5-min Rain = 0
KGO1 071139Z 00000KT 18/18 A3009 RMK A01 T01840178  RH  096%=      5-min Rain = 0
KGO1 071140Z 00000KT 18/18 A3009 RMK A01 T01840177  RH  096%=      5-min Rain = 0
KGO1 071141Z 00000KT 18/18 A3009 RMK A01 T01830177  RH  096%=      5-min Rain = 0
KGO1 071142Z 00000KT 18/18 A3009 RMK A01 T01840177  RH  096%=      5-min Rain = 0
KGO1 071143Z 00000KT 18/18 A3009 RMK A01 T01830178  RH  097%=      5-min Rain = 0
KGO1 071144Z 00000KT 18/18 A301 RMK A01 T01840179  RH  097%=      5-min Rain = 0
KGO1 071145Z 00000KT 18/18 A301 RMK A01 T01840179  RH  097%=      5-min Rain = 0
KGO1 071146Z 00000KT 18/18 A301 RMK A01 T01840179  RH  097%=      5-min Rain = 0
KGO1 071147Z 30001KT 18/18 A301 RMK A01 T01840179  RH  096%=      5-min Rain = 0
KGO1 071148Z 30002KT 19/18 A301 RMK A01 T01850178  RH  096%=      5-min Rain = 0
KGO1 071149Z 30002KT 19/18 A3009 RMK A01 T01850178  RH  096%=      5-min Rain = 0
KGO1 071150Z 30002KT 19/18 A3009 RMK A01 T01850177  RH  095%=      5-min Rain = 0
KGO1 071151Z 30001KT 19/18 A3009 RMK A01 T01860177  RH  095%=      5-min Rain = 0
KGO1 071152Z 30001KT 19/18 A3009 RMK A01 T01850176  RH  095%=      5-min Rain = 0
KGO1 071153Z 30001KT 19/18 A3009 RMK A01 T01850176  RH  094%=      5-min Rain = 0
KGO1 071154Z 30001KT 19/18 A3009 RMK A01 T01850176  RH  094%=      5-min Rain = 0
KGO1 071155Z 31000KT 19/18 A3009 RMK A01 T01850176  RH  094%=      5-min Rain = 0
KGO1 071156Z 31000KT 19/18 A3009 RMK A01 T01850176  RH  095%=      5-min Rain = 0
KGO1 071157Z 31001KT 19/18 A3009 RMK A01 T01850176  RH  095%=      5-min Rain = 0
KGO1 071158Z 31001KT 19/18 A3009 RMK A01 T01850176  RH  095%=      5-min Rain = 0
KGO1 071159Z 31001KT 19/18 A3009 RMK A01 T01850177  RH  095%=      5-min Rain = 0
KGO1 071200Z 31001KT 19/18 A3009 RMK A01 T01860178  RH  095%=      5-min Rain = 0
KGO1 071201Z 31001KT 19/18 A3009 RMK A01 T01860178  RH  095%=      5-min Rain = 0
KGO1 071202Z 32001KT 19/18 A3009 RMK A01 T01870179  RH  095%=      5-min Rain = 0
KGO1 071203Z 33001KT 19/18 A3009 RMK A01 T01870179  RH  095%=      5-min Rain = 0
KGO1 071204Z 33001KT 19/18 A3009 RMK A01 T01880179  RH  095%=      5-min Rain = 0
KGO1 071205Z 33000KT 19/18 A3009 RMK A01 T01880179  RH  094%=      5-min Rain = 0
KGO1 071206Z 00000KT 19/18 A3009 RMK A01 T01890180  RH  094%=      5-min Rain = 0
KGO1 071207Z 00000KT 19/18 A3009 RMK A01 T01900180  RH  094%=      5-min Rain = 0
KGO1 071208Z 00000KT 19/18 A3009 RMK A01 T01910181  RH  094%=      5-min Rain = 0
KGO1 071209Z 00000KT 19/18 A3009 RMK A01 T01910181  RH  094%=      5-min Rain = 0
KGO1 071210Z 00000KT 19/18 A3009 RMK A01 T01910181  RH  094%=      5-min Rain = 0
KGO1 071211Z 00001KT 19/18 A3009 RMK A01 T01920181  RH  093%=      5-min Rain = 0
KGO1 071212Z 36001KT 19/18 A3009 RMK A01 T01930181  RH  093%=      5-min Rain = 0
KGO1 071213Z 35002KT 19/18 A3009 RMK A01 T01920181  RH  093%=      5-min Rain = 0
KGO1 071214Z 35002KT 19/18 A3009 RMK A01 T01930181  RH  093%=      5-min Rain = 0
KGO1 071215Z 35002KT 19/18 A3009 RMK A01 T01920181  RH  093%=      5-min Rain = 0
KGO1 071216Z 35002KT 19/18 A3009 RMK A01 T01920181  RH  093%=      5-min Rain = 0
KGO1 071217Z 35002KT 19/18 A3009 RMK A01 T01920181  RH  093%=      5-min Rain = 0
KGO1 071218Z 35002KT 19/18 A3009 RMK A01 T01920181  RH  094%=      5-min Rain = 0
KGO1 071219Z 34003KT 19/18 A3009 RMK A01 T01930183  RH  094%=      5-min Rain = 0
KGO1 071220Z 34003KT 19/18 A3009 RMK A01 T01930184  RH  095%=      5-min Rain = 0
KGO1 071221Z 33003KT 19/19 A3009 RMK A01 T01940186  RH  095%=      5-min Rain = 0
KGO1 071222Z 32004KT 20/19 A3009 RMK A01 T01950187  RH  095%=      5-min Rain = 0
KGO1 071223Z 32004KT 20/19 A3009 RMK A01 T01960188  RH  095%=      5-min Rain = 0
KGO1 071224Z 31004KT 20/19 A3009 RMK A01 T01970189  RH  095%=      5-min Rain = 0
KGO1 071225Z 32003KT 20/19 A3009 RMK A01 T01980189  RH  094%=      5-min Rain = 0
KGO1 071226Z 32003KT 20/19 A3009 RMK A01 T01990189  RH  094%=      5-min Rain = 0
KGO1 071227Z 33003KT 20/19 A3009 RMK A01 T01990188  RH  093%=      5-min Rain = 0
KGO1 071228Z 33003KT 20/19 A3009 RMK A01 T02000189  RH  093%=      5-min Rain = 0
KGO1 071229Z 33003KT 20/19 A3009 RMK A01 T02000190  RH  094%=      5-min Rain = 0
KGO1 071230Z 32003KT 20/19 A3009 RMK A01 T02010190  RH  094%=      5-min Rain = 0
KGO1 071231Z 32003KT 20/19 A3009 RMK A01 T02010190  RH  093%=      5-min Rain = 0
KGO1 071232Z 32003KT 20/19 A3009 RMK A01 T02020192  RH  094%=      5-min Rain = 0
KGO1 071233Z 32003KT 20/19 A3009 RMK A01 T02030192  RH  093%=      5-min Rain = 0
KGO1 071234Z 32003KT 20/19 A3009 RMK A01 T02030192  RH  093%=      5-min Rain = 0
KGO1 071235Z 33003KT 20/19 A3009 RMK A01 T02040193  RH  094%=      5-min Rain = 0
KGO1 071236Z 33003KT 20/19 A3009 RMK A01 T02040193  RH  093%=      5-min Rain = 0
KGO1 071237Z 33003KT 21/19 A301 RMK A01 T02050193  RH  093%=      5-min Rain = 0
KGO1 071238Z 33003KT 21/19 A301 RMK A01 T02050192  RH  092%=      5-min Rain = 0
KGO1 071239Z 33003KT 21/19 A301 RMK A01 T02060193  RH  092%=      5-min Rain = 0
KGO1 071240Z 34002KT 21/20 A301 RMK A01 T02060195  RH  093%=      5-min Rain = 0
KGO1 071241Z 34002KT 21/19 A301 RMK A01 T02070194  RH  092%=      5-min Rain = 0
KGO1 071242Z 34002KT 21/20 A301 RMK A01 T02070195  RH  093%=      5-min Rain = 0
KGO1 071243Z 34002KT 21/20 A301 RMK A01 T02080196  RH  093%=      5-min Rain = 0
KGO1 071244Z 34002KT 21/20 A301 RMK A01 T02090196  RH  092%=      5-min Rain = 0
KGO1 071245Z 35002KT 21/20 A301 RMK A01 T02100195  RH  091%=      5-min Rain = 0
KGO1 071246Z 35002KT 21/20 A301 RMK A01 T02110196  RH  091%=      5-min Rain = 0
KGO1 071247Z 36002KT 21/20 A301 RMK A01 T02120195  RH  090%=      5-min Rain = 0
KGO1 071248Z 00002KT 21/20 A301 RMK A01 T02130196  RH  090%=      5-min Rain = 0
KGO1 071249Z 00001KT 21/20 A301 RMK A01 T02140198  RH  091%=      5-min Rain = 0
KGO1 071250Z 01001KT 21/20 A301 RMK A01 T02140197  RH  090%=      5-min Rain = 0
KGO1 071251Z 02001KT 22/20 A301 RMK A01 T02150196  RH  089%=      5-min Rain = 0
KGO1 071252Z 03002KT 22/20 A301 RMK A01 T02160198  RH  089%=      5-min Rain = 0
KGO1 071253Z 02002KT 22/20 A301 RMK A01 T02170198  RH  089%=      5-min Rain = 0
KGO1 071254Z 03002KT 22/20 A301 RMK A01 T02180198  RH  089%=      5-min Rain = 0
KGO1 071255Z 03002KT 22/20 A301 RMK A01 T02190198  RH  088%=      5-min Rain = 0
KGO1 071256Z 03002KT 22/20 A301 RMK A01 T02180198  RH  088%=      5-min Rain = 0
KGO1 071257Z 03002KT 22/20 A301 RMK A01 T02190198  RH  088%=      5-min Rain = 0
KGO1 071258Z 04002KT 22/20 A301 RMK A01 T02190198  RH  088%=      5-min Rain = 0
KGO1 071259Z 06003KT 22/20 A301 RMK A01 T02190198  RH  088%=      5-min Rain = 0
KGO1 071300Z 06003KT 22/20 A301 RMK A01 T02200197  RH  087%=      5-min Rain = 0
KGO1 071301Z 06003KT 22/20 A301 RMK A01 T02190197  RH  087%=      5-min Rain = 0
KGO1 071302Z 06003KT 22/20 A301 RMK A01 T02190199  RH  088%=      5-min Rain = 0
KGO1 071303Z 06003KT 22/20 A301 RMK A01 T02200200  RH  089%=      5-min Rain = 0
KGO1 071304Z 05003KT 22/20 A301 RMK A01 T02200199  RH  088%=      5-min Rain = 0
KGO1 071305Z 05003KT 22/20 A301 RMK A01 T02200197  RH  087%=      5-min Rain = 0
KGO1 071306Z 05002KT 22/20 A301 RMK A01 T02210197  RH  086%=      5-min Rain = 0
KGO1 071307Z 05002KT 22/20 A301 RMK A01 T02220198  RH  086%=      5-min Rain = 0
KGO1 071308Z 05002KT 22/20 A301 RMK A01 T02220196  RH  085%=      5-min Rain = 0
KGO1 071309Z 06002KT 22/20 A301 RMK A01 T02230200  RH  087%=      5-min Rain = 0
KGO1 071310Z 05002KT 22/20 A301 RMK A01 T02240199  RH  085%=      5-min Rain = 0
KGO1 071311Z 05003KT 23/20 A301 RMK A01 T02250197  RH  085%=      5-min Rain = 0
KGO1 071312Z 06003KT 23/20 A301 RMK A01 T02250196  RH  084%=      5-min Rain = 0
KGO1 071313Z 07003KT 23/20 A3011 RMK A01 T02250195  RH  083%=      5-min Rain = 0
KGO1 071314Z 08003KT 23/19 A3011 RMK A01 T02260194  RH  082%=      5-min Rain = 0
KGO1 071315Z 07002KT 23/19 A3011 RMK A01 T02260194  RH  082%=      5-min Rain = 0
KGO1 071316Z 06003KT 23/20 A3011 RMK A01 T02270199  RH  084%=      5-min Rain = 0
KGO1 071317Z 06003KT 23/20 A3011 RMK A01 T02280196  RH  082%=      5-min Rain = 0
KGO1 071318Z 06002KT 23/20 A3011 RMK A01 T02280198  RH  083%=      5-min Rain = 0
KGO1 071319Z 07002KT 23/20 A3011 RMK A01 T02290198  RH  082%=      5-min Rain = 0
KGO1 071320Z 06001KT 23/19 A3011 RMK A01 T02310194  RH  080%=      5-min Rain = 0
KGO1 071321Z 05002KT 23/19 A3011 RMK A01 T02310194  RH  080%=      5-min Rain = 0
KGO1 071322Z 04002KT 23/19 A3011 RMK A01 T02310194  RH  080%=      5-min Rain = 0
KGO1 071323Z 06001KT 23/20 A3011 RMK A01 T02310195  RH  080%=      5-min Rain = 0
KGO1 071324Z 05000KT 23/20 A3011 RMK A01 T02320198  RH  081%=      5-min Rain = 0
KGO1 071325Z 05001KT 23/20 A3011 RMK A01 T02340195  RH  079%=      5-min Rain = 0
KGO1 071326Z 07001KT 24/19 A3011 RMK A01 T02350194  RH  078%=      5-min Rain = 0
KGO1 071327Z 09002KT 24/19 A3011 RMK A01 T02360192  RH  076%=      5-min Rain = 0
KGO1 071328Z 11001KT 24/19 A3011 RMK A01 T02370193  RH  076%=      5-min Rain = 0
KGO1 071329Z 07001KT 24/19 A3011 RMK A01 T02370192  RH  076%=      5-min Rain = 0
KGO1 071330Z 09001KT 24/19 A3011 RMK A01 T02380193  RH  076%=      5-min Rain = 0
KGO1 071331Z 12001KT 24/19 A3011 RMK A01 T02390192  RH  075%=      5-min Rain = 0
KGO1 071332Z 10002KT 24/19 A3011 RMK A01 T02400191  RH  074%=      5-min Rain = 0
KGO1 071333Z 11003KT 24/19 A3011 RMK A01 T02400193  RH  075%=      5-min Rain = 0
KGO1 071334Z 12002KT 24/19 A3011 RMK A01 T02400191  RH  074%=      5-min Rain = 0
KGO1 071335Z 12002KT 24/19 A3011 RMK A01 T02400194  RH  075%=      5-min Rain = 0
KGO1 071336Z 13003KT 24/19 A3011 RMK A01 T02410190  RH  073%=      5-min Rain = 0
KGO1 071337Z 13004KT 24/19 A3011 RMK A01 T02420191  RH  073%=      5-min Rain = 0
KGO1 071338Z 14003KT 24/19 A3011 RMK A01 T02410191  RH  073%=      5-min Rain = 0
KGO1 071339Z 13003KT 24/19 A3011 RMK A01 T02410192  RH  074%=      5-min Rain = 0
KGO1 071340Z 14005KT 24/19 A3011 RMK A01 T02400191  RH  074%=      5-min Rain = 0
KGO1 071341Z 14004KT 24/19 A3011 RMK A01 T02400191  RH  074%=      5-min Rain = 0
KGO1 071342Z 14004KT 24/19 A3011 RMK A01 T02390194  RH  076%=      5-min Rain = 0
KGO1 071343Z 13005KT 24/20 A3011 RMK A01 T02390195  RH  076%=      5-min Rain = 0
KGO1 071344Z 12005KT 24/20 A3011 RMK A01 T02400195  RH  076%=      5-min Rain = 0
KGO1 071345Z 13005KT 24/20 A3011 RMK A01 T02400195  RH  076%=      5-min Rain = 0
KGO1 071346Z 14005KT 24/19 A3011 RMK A01 T02400194  RH  076%=      5-min Rain = 0
KGO1 071347Z 13004KT 24/20 A3011 RMK A01 T02400195  RH  076%=      5-min Rain = 0
KGO1 071348Z 13003KT 24/19 A3011 RMK A01 T02400193  RH  075%=      5-min Rain = 0
KGO1 071349Z 12004KT 24/20 A3011 RMK A01 T02400196  RH  076%=      5-min Rain = 0
KGO1 071350Z 12005KT 24/20 A3011 RMK A01 T02410195  RH  075%=      5-min Rain = 0
KGO1 071351Z 11005KT 24/19 A3011 RMK A01 T02410193  RH  075%=      5-min Rain = 0
KGO1 071352Z 11005KT 24/19 A3011 RMK A01 T02410193  RH  075%=      5-min Rain = 0
KGO1 071353Z 12005KT 24/19 A3011 RMK A01 T02400193  RH  075%=      5-min Rain = 0
KGO1 071354Z 13005KT 24/19 A3011 RMK A01 T02410190  RH  073%=      5-min Rain = 0
KGO1 071355Z 12006KT 24/19 A3011 RMK A01 T02420193  RH  074%=      5-min Rain = 0
KGO1 071356Z 11005KT 24/19 A3011 RMK A01 T02430191  RH  073%=      5-min Rain = 0
KGO1 071357Z 09005KT 24/19 A3011 RMK A01 T02430192  RH  073%=      5-min Rain = 0
KGO1 071358Z 13005KT 24/19 A3011 RMK A01 T02430194  RH  074%=      5-min Rain = 0
KGO1 071359Z 12005KT 24/19 A3011 RMK A01 T02440192  RH  073%=      5-min Rain = 0
KGO1 071400Z 12004KT 24/19 A3011 RMK A01 T02440191  RH  072%=      5-min Rain = 0
KGO1 071401Z 10004KT 24/19 A3011 RMK A01 T02440193  RH  073%=      5-min Rain = 0
KGO1 071402Z 11005KT 24/19 A3011 RMK A01 T02440193  RH  073%=      5-min Rain = 0
KGO1 071403Z 12005KT 25/19 A3011 RMK A01 T02450193  RH  073%=      5-min Rain = 0
KGO1 071404Z 09006KT 25/19 A3011 RMK A01 T02450194  RH  073%=      5-min Rain = 0
KGO1 071405Z 10006KT 25/19 A3011 RMK A01 T02460193  RH  073%=      5-min Rain = 0
KGO1 071406Z 10006KT 25/19 A3011 RMK A01 T02450191  RH  072%=      5-min Rain = 0
KGO1 071407Z 10007KT 24/19 A3011 RMK A01 T02440192  RH  073%=      5-min Rain = 0
KGO1 071408Z 10006KT 24/19 A3011 RMK A01 T02440193  RH  073%=      5-min Rain = 0
KGO1 071409Z 11006KT 25/19 A3011 RMK A01 T02450190  RH  072%=      5-min Rain = 0
KGO1 071410Z 12004KT 25/19 A3011 RMK A01 T02450192  RH  072%=      5-min Rain = 0
KGO1 071411Z 10004KT 24/19 A3011 RMK A01 T02440191  RH  072%=      5-min Rain = 0
KGO1 071412Z 10003KT 24/19 A3011 RMK A01 T02440190  RH  072%=      5-min Rain = 0
KGO1 071413Z 14005KT 24/19 A3011 RMK A01 T02440191  RH  072%=      5-min Rain = 0
KGO1 071414Z 16003KT 25/19 A3011 RMK A01 T02450191  RH  071%=      5-min Rain = 0
KGO1 071415Z 16004KT 25/19 A3011 RMK A01 T02460192  RH  072%=      5-min Rain = 0
KGO1 071416Z 14005KT 25/19 A3011 RMK A01 T02460194  RH  073%=      5-min Rain = 0
KGO1 071417Z 16006KT 25/19 A3011 RMK A01 T02470191  RH  071%=      5-min Rain = 0
KGO1 071418Z 16006KT 25/19 A3011 RMK A01 T02480188  RH  070%=      5-min Rain = 0
KGO1 071419Z 15005KT 25/19 A3011 RMK A01 T02480189  RH  069%=      5-min Rain = 0
KGO1 071420Z 14004KT 25/19 A3011 RMK A01 T02490193  RH  071%=      5-min Rain = 0
KGO1 071421Z 15005KT 25/19 A3011 RMK A01 T02500192  RH  070%=      5-min Rain = 0
KGO1 071422Z 14003KT 25/19 A3011 RMK A01 T02500193  RH  071%=      5-min Rain = 0
KGO1 071423Z 14006KT 25/20 A3011 RMK A01 T02510195  RH  071%=      5-min Rain = 0
KGO1 071424Z 13007KT 25/19 A3011 RMK A01 T02530190  RH  068%=      5-min Rain = 0
KGO1 071425Z 13006KT 25/19 A3011 RMK A01 T02540192  RH  069%=      5-min Rain = 0
KGO1 071426Z 14005KT 25/19 A3011 RMK A01 T02540193  RH  069%=      5-min Rain = 0
KGO1 071427Z 14004KT 25/19 A3011 RMK A01 T02540192  RH  068%=      5-min Rain = 0
KGO1 071428Z 14005KT 25/19 A3011 RMK A01 T02540193  RH  069%=      5-min Rain = 0
KGO1 071429Z 14005KT 25/19 A3011 RMK A01 T02540194  RH  069%=      5-min Rain = 0
KGO1 071430Z 13006KT 26/19 A3011 RMK A01 T02550194  RH  069%=      5-min Rain = 0
KGO1 071431Z 11006KT 26/19 A3011 RMK A01 T02550191  RH  068%=      5-min Rain = 0
KGO1 071432Z 14009KT 25/19 A3011 RMK A01 T02540190  RH  068%=      5-min Rain = 0
KGO1 071433Z 15006KT 26/19 A3011 RMK A01 T02550189  RH  067%=      5-min Rain = 0
KGO1 071434Z 15005KT 26/19 A3011 RMK A01 T02550190  RH  067%=      5-min Rain = 0
KGO1 071435Z 15006KT 26/19 A3011 RMK A01 T02550191  RH  068%=      5-min Rain = 0
KGO1 071436Z 13005KT 26/19 A3011 RMK A01 T02550191  RH  068%=      5-min Rain = 0
KGO1 071437Z 13004KT 25/19 A3011 RMK A01 T02530191  RH  068%=      5-min Rain = 0
KGO1 071438Z 13005KT 25/19 A3011 RMK A01 T02530190  RH  068%=      5-min Rain = 0
KGO1 071439Z 14007KT 25/19 A3011 RMK A01 T02540189  RH  067%=      5-min Rain = 0
KGO1 071440Z 14007KT 26/19 A3011 RMK A01 T02560185  RH  065%=      5-min Rain = 0
KGO1 071441Z 13006KT 26/19 A3011 RMK A01 T02560187  RH  065%=      5-min Rain = 0
KGO1 071442Z 14005KT 26/19 A3011 RMK A01 T02570188  RH  066%=      5-min Rain = 0
KGO1 071443Z 15005KT 26/19 A3011 RMK A01 T02580191  RH  066%=      5-min Rain = 0
KGO1 071444Z 14007KT 26/19 A3011 RMK A01 T02600187  RH  064%=      5-min Rain = 0
KGO1 071445Z 15006KT 26/18 A3011 RMK A01 T02600184  RH  063%=      5-min Rain = 0
KGO1 071446Z 15006KT 26/19 A3011 RMK A01 T02580185  RH  064%=      5-min Rain = 0
KGO1 071447Z 15005KT 26/19 A3011 RMK A01 T02580188  RH  065%=      5-min Rain = 0
KGO1 071448Z 13005KT 26/19 A3011 RMK A01 T02580187  RH  065%=      5-min Rain = 0
KGO1 071449Z 15005KT 26/19 A3011 RMK A01 T02580188  RH  065%=      5-min Rain = 0
KGO1 071450Z 13004KT 26/19 A3011 RMK A01 T02580189  RH  066%=      5-min Rain = 0
KGO1 071451Z 15004KT 26/19 A3011 RMK A01 T02590189  RH  065%=      5-min Rain = 0
KGO1 071452Z 14006KT 26/19 A3011 RMK A01 T02600189  RH  065%=      5-min Rain = 0
KGO1 071453Z 13005KT 26/19 A3011 RMK A01 T02600188  RH  064%=      5-min Rain = 0
KGO1 071454Z 13005KT 26/19 A3011 RMK A01 T02590189  RH  065%=      5-min Rain = 0
KGO1 071455Z 13007KT 26/19 A3011 RMK A01 T02590189  RH  065%=      5-min Rain = 0
KGO1 071456Z 13006KT 26/19 A3011 RMK A01 T02610190  RH  065%=      5-min Rain = 0
KGO1 071457Z 13006KT 26/19 A3011 RMK A01 T02600189  RH  065%=      5-min Rain = 0
KGO1 071458Z 14004KT 26/19 A3011 RMK A01 T02600186  RH  064%=      5-min Rain = 0
KGO1 071459Z 12004KT 26/19 A3011 RMK A01 T02600188  RH  065%=      5-min Rain = 0
KGO1 071500Z 12007KT 26/19 A3011 RMK A01 T02600187  RH  064%=      5-min Rain = 0
KGO1 071501Z 13006KT 26/19 A3011 RMK A01 T02620186  RH  063%=      5-min Rain = 0
KGO1 071502Z 13006KT 26/19 A3011 RMK A01 T02630187  RH  063%=      5-min Rain = 0
KGO1 071503Z 13004KT 26/19 A3011 RMK A01 T02630188  RH  063%=      5-min Rain = 0
KGO1 071504Z 12005KT 26/19 A3011 RMK A01 T02630186  RH  063%=      5-min Rain = 0
KGO1 071505Z 11006KT 26/19 A3011 RMK A01 T02620185  RH  062%=      5-min Rain = 0
KGO1 071506Z 10005KT 26/19 A3011 RMK A01 T02610186  RH  063%=      5-min Rain = 0
KGO1 071507Z 11005KT 26/19 A3011 RMK A01 T02610186  RH  063%=      5-min Rain = 0
KGO1 071508Z 14007KT 26/19 A3011 RMK A01 T02610186  RH  064%=      5-min Rain = 0
KGO1 071509Z 14006KT 26/18 A3011 RMK A01 T02610183  RH  062%=      5-min Rain = 0
KGO1 071510Z 15006KT 26/18 A3011 RMK A01 T02610184  RH  062%=      5-min Rain = 0
KGO1 071511Z 14006KT 26/19 A3011 RMK A01 T02630185  RH  062%=      5-min Rain = 0
KGO1 071512Z 11005KT 26/18 A3011 RMK A01 T02640183  RH  061%=      5-min Rain = 0
KGO1 071513Z 13005KT 26/18 A3011 RMK A01 T02630182  RH  061%=      5-min Rain = 0
KGO1 071514Z 13007KT 26/18 A3011 RMK A01 T02610184  RH  063%=      5-min Rain = 0
KGO1 071515Z 12007KT 26/18 A3011 RMK A01 T02610183  RH  062%=      5-min Rain = 0
KGO1 071516Z 13006KT 26/18 A3011 RMK A01 T02610183  RH  062%=      5-min Rain = 0
KGO1 071517Z 13006KT 26/18 A3011 RMK A01 T02600183  RH  062%=      5-min Rain = 0
KGO1 071518Z 14005KT 26/18 A3011 RMK A01 T02600184  RH  063%=      5-min Rain = 0
KGO1 071519Z 14003KT 26/18 A3011 RMK A01 T02610184  RH  063%=      5-min Rain = 0
KGO1 071520Z 15002KT 26/18 A3011 RMK A01 T02610184  RH  063%=      5-min Rain = 0
KGO1 071521Z 14005KT 26/19 A3011 RMK A01 T02620186  RH  063%=      5-min Rain = 0
KGO1 071522Z 16005KT 26/19 A3011 RMK A01 T02620188  RH  064%=      5-min Rain = 0
KGO1 071523Z 15005KT 26/19 A3011 RMK A01 T02620189  RH  064%=      5-min Rain = 0
KGO1 071524Z 16006KT 26/19 A3011 RMK A01 T02640189  RH  063%=      5-min Rain = 0
KGO1 071525Z 16007KT 26/19 A3011 RMK A01 T02640188  RH  063%=      5-min Rain = 0
KGO1 071526Z 12007KT 26/19 A3011 RMK A01 T02640188  RH  063%=      5-min Rain = 0
KGO1 071527Z 14006KT 27/19 A3011 RMK A01 T02670193  RH  064%=      5-min Rain = 0
KGO1 071528Z 15006KT 27/19 A3011 RMK A01 T02710190  RH  061%=      5-min Rain = 0
KGO1 071529Z 15006KT 27/19 A3011 RMK A01 T02720188  RH  060%=      5-min Rain = 0
KGO1 071530Z 17007KT 27/19 A3011 RMK A01 T02730187  RH  059%=      5-min Rain = 0
KGO1 071531Z 17005KT 27/18 A3011 RMK A01 T02720184  RH  059%=      5-min Rain = 0
KGO1 071532Z 15004KT 27/19 A3011 RMK A01 T02680186  RH  061%=      5-min Rain = 0
KGO1 071533Z 16006KT 27/19 A3011 RMK A01 T02690187  RH  060%=      5-min Rain = 0
KGO1 071534Z 15006KT 27/19 A3011 RMK A01 T02720189  RH  061%=      5-min Rain = 0
KGO1 071535Z 14006KT 27/19 A3011 RMK A01 T02740189  RH  060%=      5-min Rain = 0
KGO1 071536Z 15005KT 28/19 A3011 RMK A01 T02750187  RH  059%=      5-min Rain = 0
KGO1 071537Z 15006KT 28/19 A3011 RMK A01 T02750189  RH  060%=      5-min Rain = 0
KGO1 071538Z 15004KT 28/19 A3011 RMK A01 T02760187  RH  058%=      5-min Rain = 0
KGO1 071539Z 15008KT 28/19 A3011 RMK A01 T02750186  RH  058%=      5-min Rain = 0
KGO1 071540Z 16006KT 27/19 A3011 RMK A01 T02730186  RH  059%=      5-min Rain = 0
KGO1 071541Z 16004KT 27/18 A3011 RMK A01 T02720182  RH  058%=      5-min Rain = 0
KGO1 071542Z 15006KT 27/19 A3011 RMK A01 T02720186  RH  059%=      5-min Rain = 0
KGO1 071543Z 14006KT 27/19 A3011 RMK A01 T02730185  RH  059%=      5-min Rain = 0
KGO1 071544Z 12007KT 27/19 A3011 RMK A01 T02730187  RH  059%=      5-min Rain = 0
KGO1 071545Z 14006KT 27/19 A3011 RMK A01 T02720185  RH  059%=      5-min Rain = 0
KGO1 071546Z 16007KT 27/19 A3011 RMK A01 T02720185  RH  059%=      5-min Rain = 0
KGO1 071547Z 15006KT 27/18 A3011 RMK A01 T02710183  RH  059%=      5-min Rain = 0
KGO1 071548Z 16007KT 27/19 A3011 RMK A01 T02690185  RH  060%=      5-min Rain = 0
KGO1 071549Z 16009KT 27/18 A3011 RMK A01 T02710184  RH  059%=      5-min Rain = 0
KGO1 071550Z 15007KT 27/18 A3011 RMK A01 T02730184  RH  058%=      5-min Rain = 0
KGO1 071551Z 12005KT 27/19 A3011 RMK A01 T02740188  RH  059%=      5-min Rain = 0
KGO1 071552Z 13006KT 28/18 A3011 RMK A01 T02750184  RH  057%=      5-min Rain = 0
KGO1 071553Z 15007KT 27/19 A3011 RMK A01 T02740187  RH  059%=      5-min Rain = 0
KGO1 071554Z 14009KT 27/19 A3011 RMK A01 T02740188  RH  059%=      5-min Rain = 0
KGO1 071555Z 14008KT 28/19 A3011 RMK A01 T02750187  RH  058%=      5-min Rain = 0
KGO1 071556Z 13007KT 28/19 A3011 RMK A01 T02750187  RH  059%=      5-min Rain = 0
KGO1 071557Z 13006KT 27/19 A3011 RMK A01 T02740188  RH  059%=      5-min Rain = 0
KGO1 071558Z 12005KT 28/19 A3011 RMK A01 T02760186  RH  058%=      5-min Rain = 0
KGO1 071559Z 14003KT 28/19 A3011 RMK A01 T02760186  RH  058%=      5-min Rain = 0
KGO1 071600Z 15006KT 28/19 A3011 RMK A01 T02770185  RH  057%=      5-min Rain = 0
KGO1 071601Z 17006KT 28/19 A3011 RMK A01 T02760186  RH  058%=      5-min Rain = 0
KGO1 071602Z 16010KT 28/18 A3011 RMK A01 T02770184  RH  057%=      5-min Rain = 0
KGO1 071603Z 16009KT 28/18 A3011 RMK A01 T02760184  RH  057%=      5-min Rain = 0
KGO1 071604Z 16005KT 27/19 A3011 RMK A01 T02740187  RH  059%=      5-min Rain = 0
KGO1 071605Z 16009KT 27/19 A3011 RMK A01 T02740185  RH  058%=      5-min Rain = 0
KGO1 071606Z 17006KT 28/19 A3011 RMK A01 T02750186  RH  058%=      5-min Rain = 0
KGO1 071607Z 17004KT 28/19 A3011 RMK A01 T02750185  RH  058%=      5-min Rain = 0
KGO1 071608Z 14004KT 28/18 A3011 RMK A01 T02760182  RH  057%=      5-min Rain = 0
KGO1 071609Z 13007KT 28/18 A3011 RMK A01 T02760184  RH  057%=      5-min Rain = 0
KGO1 071610Z 14007KT 28/18 A3011 RMK A01 T02770184  RH  057%=      5-min Rain = 0
KGO1 071611Z 12005KT 28/18 A3011 RMK A01 T02760181  RH  056%=      5-min Rain = 0
KGO1 071612Z 12004KT 28/18 A3011 RMK A01 T02750183  RH  057%=      5-min Rain = 0
KGO1 071613Z 10003KT 28/19 A3011 RMK A01 T02750185  RH  058%=      5-min Rain = 0
KGO1 071614Z 13007KT 28/19 A3011 RMK A01 T02770185  RH  057%=      5-min Rain = 0
KGO1 071615Z 14007KT 28/19 A3011 RMK A01 T02780185  RH  057%=      5-min Rain = 0
KGO1 071616Z 14009KT 28/19 A3011 RMK A01 T02790188  RH  058%=      5-min Rain = 0
KGO1 071617Z 13007KT 28/18 A3011 RMK A01 T02790184  RH  056%=      5-min Rain = 0
KGO1 071618Z 15006KT 28/19 A3011 RMK A01 T02770185  RH  057%=      5-min Rain = 0
KGO1 071619Z 16005KT 27/18 A3011 RMK A01 T02740184  RH  058%=      5-min Rain = 0
KGO1 071620Z 16006KT 27/19 A3011 RMK A01 T02730186  RH  059%=      5-min Rain = 0
KGO1 071621Z 16006KT 28/19 A3011 RMK A01 T02770188  RH  058%=      5-min Rain = 0
KGO1 071622Z 18005KT 28/18 A3011 RMK A01 T02800182  RH  055%=      5-min Rain = 0
KGO1 071623Z 18004KT 28/18 A3011 RMK A01 T02780180  RH  055%=      5-min Rain = 0
KGO1 071624Z 15005KT 28/18 A3011 RMK A01 T02760183  RH  057%=      5-min Rain = 0
KGO1 071625Z 15005KT 28/18 A3011 RMK A01 T02750181  RH  057%=      5-min Rain = 0
KGO1 071626Z 13005KT 28/18 A3011 RMK A01 T02760181  RH  056%=      5-min Rain = 0
KGO1 071627Z 16005KT 28/18 A3011 RMK A01 T02770179  RH  055%=      5-min Rain = 0
KGO1 071628Z 17008KT 28/18 A3011 RMK A01 T02780176  RH  054%=      5-min Rain = 0
KGO1 071629Z 17008KT 28/18 A3011 RMK A01 T02780180  RH  055%=      5-min Rain = 0
KGO1 071630Z 18007KT 28/18 A3011 RMK A01 T02810179  RH  054%=      5-min Rain = 0
KGO1 071631Z 15007KT 28/18 A3011 RMK A01 T02820178  RH  053%=      5-min Rain = 0
KGO1 071632Z 14006KT 28/18 A3011 RMK A01 T02820183  RH  055%=      5-min Rain = 0
KGO1 071633Z 13006KT 28/18 A3011 RMK A01 T02830182  RH  054%=      5-min Rain = 0
KGO1 071634Z 14007KT 28/18 A3011 RMK A01 T02820183  RH  055%=      5-min Rain = 0
KGO1 071635Z 14008KT 28/19 A3011 RMK A01 T02820185  RH  055%=      5-min Rain = 0
KGO1 071636Z 14008KT 28/18 A3011 RMK A01 T02830183  RH  055%=      5-min Rain = 0
KGO1 071637Z 14007KT 28/19 A3011 RMK A01 T02830185  RH  055%=      5-min Rain = 0
KGO1 071638Z 13007KT 28/19 A3011 RMK A01 T02830186  RH  056%=      5-min Rain = 0
KGO1 071639Z 11005KT 28/18 A3011 RMK A01 T02830184  RH  055%=      5-min Rain = 0
KGO1 071640Z 12006KT 28/19 A3011 RMK A01 T02840187  RH  056%=      5-min Rain = 0
KGO1 071641Z 10006KT 29/18 A3011 RMK A01 T02870184  RH  053%=      5-min Rain = 0
KGO1 071642Z 14006KT 29/18 A3011 RMK A01 T02870182  RH  053%=      5-min Rain = 0
KGO1 071643Z 14005KT 29/18 A3011 RMK A01 T02850177  RH  052%=      5-min Rain = 0
KGO1 071644Z 17005KT 28/18 A3011 RMK A01 T02840177  RH  052%=      5-min Rain = 0
KGO1 071645Z 16003KT 28/17 A3011 RMK A01 T02840171  RH  050%=      5-min Rain = 0
KGO1 071646Z 16002KT 28/18 A3011 RMK A01 T02830178  RH  053%=      5-min Rain = 0
KGO1 071647Z 15003KT 28/18 A3011 RMK A01 T02840176  RH  052%=      5-min Rain = 0
KGO1 071648Z 13006KT 28/18 A3011 RMK A01 T02830177  RH  053%=      5-min Rain = 0
KGO1 071649Z 13005KT 28/18 A3011 RMK A01 T02800179  RH  054%=      5-min Rain = 0
KGO1 071650Z 15007KT 28/18 A3011 RMK A01 T02800180  RH  055%=      5-min Rain = 0
KGO1 071651Z 13005KT 28/18 A3011 RMK A01 T02800181  RH  055%=      5-min Rain = 0
KGO1 071652Z 15004KT 28/18 A3011 RMK A01 T02830183  RH  055%=      5-min Rain = 0
KGO1 071653Z 15006KT 29/18 A3011 RMK A01 T02850183  RH  054%=      5-min Rain = 0
KGO1 071654Z 16005KT 29/18 A3011 RMK A01 T02850179  RH  052%=      5-min Rain = 0
KGO1 071655Z 16002KT 28/18 A3011 RMK A01 T02840177  RH  052%=      5-min Rain = 0
KGO1 071656Z 16002KT 28/18 A3011 RMK A01 T02830177  RH  053%=      5-min Rain = 0
KGO1 071657Z 12006KT 28/18 A3011 RMK A01 T02830184  RH  055%=      5-min Rain = 0
KGO1 071658Z 12008KT 29/18 A3011 RMK A01 T02860183  RH  054%=      5-min Rain = 0
KGO1 071659Z 12005KT 29/18 A3011 RMK A01 T02860182  RH  053%=      5-min Rain = 0
KGO1 071700Z 11003KT 29/18 A3011 RMK A01 T02860182  RH  053%=      5-min Rain = 0
KGO1 071701Z 10002KT 29/18 A3011 RMK A01 T02850180  RH  053%=      5-min Rain = 0
KGO1 071702Z 12002KT 28/18 A301 RMK A01 T02840181  RH  053%=      5-min Rain = 0
KGO1 071703Z 11002KT 28/18 A301 RMK A01 T02830180  RH  053%=      5-min Rain = 0
KGO1 071704Z 12002G9KT 28/18 A301 RMK A01 T02830180  RH  054%=      5-min Rain = 0
KGO1 071705Z 13006KT 28/18 A301 RMK A01 T02830183  RH  055%=      5-min Rain = 0
KGO1 071706Z 13005KT 29/18 A301 RMK A01 T02860182  RH  053%=      5-min Rain = 0
KGO1 071707Z 12003KT 29/18 A301 RMK A01 T02860181  RH  053%=      5-min Rain = 0
KGO1 071708Z 11003KT 29/18 A301 RMK A01 T02860180  RH  053%=      5-min Rain = 0
KGO1 071709Z 15004KT 29/18 A301 RMK A01 T02850180  RH  053%=      5-min Rain = 0
KGO1 071710Z 16005KT 29/18 A301 RMK A01 T02850178  RH  052%=      5-min Rain = 0
KGO1 071711Z 19004KT 29/18 A301 RMK A01 T02850179  RH  053%=      5-min Rain = 0
KGO1 071712Z 18004KT 29/18 A301 RMK A01 T02850177  RH  052%=      5-min Rain = 0
KGO1 071713Z 14005KT 29/18 A301 RMK A01 T02850181  RH  053%=      5-min Rain = 0
KGO1 071714Z 16004KT 29/18 A301 RMK A01 T02850178  RH  053%=      5-min Rain = 0
KGO1 071715Z 18005KT 28/18 A301 RMK A01 T02840181  RH  054%=      5-min Rain = 0
KGO1 071716Z 16004KT 28/18 A301 RMK A01 T02840177  RH  052%=      5-min Rain = 0
KGO1 071717Z 18003KT 28/18 A301 RMK A01 T02820181  RH  054%=      5-min Rain = 0
KGO1 071718Z 15004KT 28/18 A301 RMK A01 T02840183  RH  054%=      5-min Rain = 0
KGO1 071719Z 13005KT 29/18 A301 RMK A01 T02870183  RH  053%=      5-min Rain = 0
KGO1 071720Z 14007KT 29/18 A301 RMK A01 T02910181  RH  052%=      5-min Rain = 0
KGO1 071721Z 15006KT 29/18 A301 RMK A01 T02920183  RH  052%=      5-min Rain = 0
KGO1 071722Z 16004KT 29/18 A301 RMK A01 T02910181  RH  052%=      5-min Rain = 0
KGO1 071723Z 18005KT 29/18 A301 RMK A01 T02890182  RH  052%=      5-min Rain = 0
KGO1 071724Z 16006KT 29/18 A301 RMK A01 T02890184  RH  053%=      5-min Rain = 0
KGO1 071725Z 14006KT 29/19 A301 RMK A01 T02910187  RH  053%=      5-min Rain = 0
KGO1 071726Z 11007KT 30/19 A301 RMK A01 T02950188  RH  053%=      5-min Rain = 0
KGO1 071727Z 11008KT 30/19 A301 RMK A01 T02990186  RH  051%=      5-min Rain = 0
KGO1 071728Z 11007KT 30/18 A301 RMK A01 T02990184  RH  050%=      5-min Rain = 0
KGO1 071729Z 11004KT 30/18 A301 RMK A01 T02960181  RH  050%=      5-min Rain = 0
KGO1 071730Z 10006KT 29/18 A301 RMK A01 T02930181  RH  051%=      5-min Rain = 0
KGO1 071731Z 08006KT 29/18 A301 RMK A01 T02920181  RH  051%=      5-min Rain = 0
KGO1 071732Z 09007KT 29/18 A301 RMK A01 T02920181  RH  051%=      5-min Rain = 0
KGO1 071733Z 10003KT 29/18 A301 RMK A01 T02930179  RH  050%=      5-min Rain = 0
KGO1 071734Z 05002KT 29/18 A301 RMK A01 T02940181  RH  051%=      5-min Rain = 0
KGO1 071735Z 10003G8KT 29/18 A301 RMK A01 T02930180  RH  050%=      5-min Rain = 0
KGO1 071736Z 14005KT 29/18 A301 RMK A01 T02940182  RH  051%=      5-min Rain = 0
KGO1 071737Z 12006KT 30/18 A301 RMK A01 T02980180  RH  049%=      5-min Rain = 0
KGO1 071738Z 13007KT 30/18 A301 RMK A01 T02980179  RH  049%=      5-min Rain = 0
KGO1 071739Z 11006KT 30/18 A301 RMK A01 T02970176  RH  048%=      5-min Rain = 0
KGO1 071740Z 12005KT 30/18 A301 RMK A01 T02960177  RH  049%=      5-min Rain = 0
KGO1 071741Z 14004KT 30/18 A301 RMK A01 T02950177  RH  049%=      5-min Rain = 0
KGO1 071742Z 07005KT 30/18 A301 RMK A01 T02960180  RH  050%=      5-min Rain = 0
KGO1 071743Z 06007KT 30/18 A301 RMK A01 T02990178  RH  048%=      5-min Rain = 0
KGO1 071744Z 06008KT 30/18 A301 RMK A01 T03010175  RH  047%=      5-min Rain = 0
KGO1 071745Z 05008KT 30/18 A301 RMK A01 T03000177  RH  048%=      5-min Rain = 0
KGO1 071746Z 05007KT 30/18 A301 RMK A01 T03020178  RH  047%=      5-min Rain = 0
KGO1 071747Z 05006KT 30/18 A301 RMK A01 T03040175  RH  046%=      5-min Rain = 0
KGO1 071748Z 09006KT 30/18 A301 RMK A01 T03020176  RH  047%=      5-min Rain = 0
KGO1 071749Z 09006KT 30/18 A301 RMK A01 T02990177  RH  048%=      5-min Rain = 0
KGO1 071750Z 09006KT 30/18 A301 RMK A01 T02990178  RH  048%=      5-min Rain = 0
KGO1 071751Z 07005KT 30/18 A301 RMK A01 T02990179  RH  048%=      5-min Rain = 0
KGO1 071752Z 07005KT 30/18 A301 RMK A01 T03030177  RH  047%=      5-min Rain = 0
KGO1 071753Z 12008KT 30/18 A301 RMK A01 T03030180  RH  048%=      5-min Rain = 0
KGO1 071754Z 10008KT 30/18 A301 RMK A01 T03030182  RH  048%=      5-min Rain = 0
KGO1 071755Z 11007KT 31/18 A301 RMK A01 T03050179  RH  047%=      5-min Rain = 0
KGO1 071756Z 10005KT 30/18 A301 RMK A01 T03030178  RH  047%=      5-min Rain = 0
KGO1 071757Z 07004KT 30/18 A301 RMK A01 T03000178  RH  048%=      5-min Rain = 0
KGO1 071758Z 10006KT 30/18 A301 RMK A01 T02980178  RH  049%=      5-min Rain = 0
KGO1 071759Z 08004KT 30/18 A301 RMK A01 T02970175  RH  048%=      5-min Rain = 0
KGO1 071800Z 06005KT 30/18 A301 RMK A01 T02970176  RH  048%=      5-min Rain = 0
KGO1 071801Z 12007KT 30/18 A301 RMK A01 T02960177  RH  049%=      5-min Rain = 0
KGO1 071802Z 16004KT 30/17 A301 RMK A01 T02970174  RH  047%=      5-min Rain = 0
KGO1 071803Z 16003KT 30/17 A301 RMK A01 T02960172  RH  047%=      5-min Rain = 0
KGO1 071804Z 13002KT 30/17 A301 RMK A01 T02950172  RH  048%=      5-min Rain = 0
KGO1 071805Z 13001KT 29/17 A301 RMK A01 T02940173  RH  048%=      5-min Rain = 0
KGO1 071806Z 15002KT 30/18 A301 RMK A01 T02950175  RH  048%=      5-min Rain = 0
KGO1 071807Z 11006KT 30/18 A301 RMK A01 T02980176  RH  048%=      5-min Rain = 0
KGO1 071808Z 07006KT 30/18 A301 RMK A01 T03030177  RH  047%=      5-min Rain = 0
KGO1 071809Z 10006KT 31/18 A301 RMK A01 T03060175  RH  045%=      5-min Rain = 0
KGO1 071810Z 10004KT 30/18 A3009 RMK A01 T03030178  RH  047%=      5-min Rain = 0
KGO1 071811Z 10007KT 30/18 A3009 RMK A01 T03000180  RH  049%=      5-min Rain = 0
KGO1 071812Z 10010KT 30/18 A3009 RMK A01 T03000183  RH  050%=      5-min Rain = 0
KGO1 071813Z 11010KT 30/18 A301 RMK A01 T03020183  RH  049%=      5-min Rain = 0
KGO1 071814Z 10008KT 31/18 A301 RMK A01 T03050181  RH  048%=      5-min Rain = 0
KGO1 071815Z 12008KT 30/18 A3009 RMK A01 T03030179  RH  048%=      5-min Rain = 0
KGO1 071816Z 09007KT 30/18 A3009 RMK A01 T02990180  RH  049%=      5-min Rain = 0
KGO1 071817Z 08007KT 30/18 A3009 RMK A01 T03000179  RH  048%=      5-min Rain = 0
KGO1 071818Z 05002KT 30/18 A3009 RMK A01 T03010179  RH  048%=      5-min Rain = 0
KGO1 071819Z 07002KT 30/18 A3009 RMK A01 T03010180  RH  048%=      5-min Rain = 0
KGO1 071820Z 07008KT 30/18 A3009 RMK A01 T03020179  RH  048%=      5-min Rain = 0
KGO1 071821Z 09008KT 30/18 A3009 RMK A01 T03040175  RH  046%=      5-min Rain = 0
KGO1 071822Z 12009KT 31/18 A3009 RMK A01 T03060180  RH  047%=      5-min Rain = 0
KGO1 071823Z 11010KT 30/18 A3009 RMK A01 T03030178  RH  047%=      5-min Rain = 0
KGO1 071824Z 10010KT 30/18 A3009 RMK A01 T03000177  RH  047%=      5-min Rain = 0
KGO1 071825Z 11010KT 30/18 A3009 RMK A01 T03000178  RH  048%=      5-min Rain = 0
KGO1 071826Z 12009KT 30/18 A3009 RMK A01 T03030176  RH  046%=      5-min Rain = 0
KGO1 071827Z 11008KT 31/17 A3009 RMK A01 T03050174  RH  046%=      5-min Rain = 0
KGO1 071828Z 10005KT 30/18 A3009 RMK A01 T03040175  RH  046%=      5-min Rain = 0
KGO1 071829Z 11003KT 31/17 A3009 RMK A01 T03050173  RH  045%=      5-min Rain = 0
KGO1 071830Z 07008KT 30/18 A3009 RMK A01 T03040177  RH  046%=      5-min Rain = 0
KGO1 071831Z 06006KT 31/17 A3009 RMK A01 T03060174  RH  045%=      5-min Rain = 0
KGO1 071832Z 05005KT 31/18 A3009 RMK A01 T03060175  RH  045%=      5-min Rain = 0
KGO1 071833Z 09006KT 31/18 A3009 RMK A01 T03060178  RH  046%=      5-min Rain = 0
KGO1 071834Z 09006KT 31/18 A3009 RMK A01 T03080176  RH  045%=      5-min Rain = 0
KGO1 071835Z 09004KT 31/17 A3009 RMK A01 T03070173  RH  045%=      5-min Rain = 0
KGO1 071836Z 10007KT 31/18 A3009 RMK A01 T03050177  RH  046%=      5-min Rain = 0
KGO1 071837Z 13008KT 31/17 A3009 RMK A01 T03060174  RH  045%=      5-min Rain = 0
KGO1 071838Z 11006KT 31/17 A3009 RMK A01 T03050174  RH  045%=      5-min Rain = 0
KGO1 071839Z 10007KT 30/18 A3009 RMK A01 T03040175  RH  046%=      5-min Rain = 0
KGO1 071840Z 10007KT 31/18 A3009 RMK A01 T03070177  RH  046%=      5-min Rain = 0
KGO1 071841Z 11008KT 31/17 A3009 RMK A01 T03110174  RH  044%=      5-min Rain = 0
KGO1 071842Z 13008KT 31/18 A3009 RMK A01 T03080177  RH  045%=      5-min Rain = 0
KGO1 071843Z 15008KT 31/18 A3009 RMK A01 T03070177  RH  046%=      5-min Rain = 0
KGO1 071844Z 17007KT 31/18 A3008 RMK A01 T03070178  RH  046%=      5-min Rain = 0
KGO1 071845Z 16006KT 31/18 A3008 RMK A01 T03070176  RH  045%=      5-min Rain = 0
KGO1 071846Z 13004KT 31/18 A3009 RMK A01 T03060175  RH  045%=      5-min Rain = 0
KGO1 071847Z 10005KT 31/17 A3009 RMK A01 T03050174  RH  045%=      5-min Rain = 0
KGO1 071848Z 12007KT 31/18 A3009 RMK A01 T03090176  RH  045%=      5-min Rain = 0
KGO1 071849Z 12005KT 31/17 A3008 RMK A01 T03130174  RH  044%=      5-min Rain = 0
KGO1 071850Z 15004KT 31/18 A3008 RMK A01 T03130177  RH  044%=      5-min Rain = 0
KGO1 071851Z 14002KT 31/17 A3008 RMK A01 T03130173  RH  043%=      5-min Rain = 0
KGO1 071852Z 13007KT 31/18 A3008 RMK A01 T03120176  RH  044%=      5-min Rain = 0
KGO1 071853Z 15005G10KT 31/17 A3008 RMK A01 T03120173  RH  043%=      5-min Rain = 0
KGO1 071854Z 10007KT 31/18 A3008 RMK A01 T03100175  RH  044%=      5-min Rain = 0
KGO1 071855Z 09009KT 31/17 A3008 RMK A01 T03100173  RH  044%=      5-min Rain = 0
KGO1 071856Z 12010KT 31/18 A3008 RMK A01 T03130175  RH  044%=      5-min Rain = 0
KGO1 071857Z 12010KT 31/18 A3008 RMK A01 T03130177  RH  044%=      5-min Rain = 0
KGO1 071858Z 13007KT 31/18 A3008 RMK A01 T03130177  RH  044%=      5-min Rain = 0
KGO1 071859Z 13006KT 31/18 A3008 RMK A01 T03130175  RH  044%=      5-min Rain = 0
KGO1 071900Z 13007KT 31/18 A3008 RMK A01 T03130175  RH  044%=      5-min Rain = 0
KGO1 071901Z 12006KT 31/18 A3008 RMK A01 T03130175  RH  044%=      5-min Rain = 0
KGO1 071902Z 11008KT 31/17 A3008 RMK A01 T03130173  RH  043%=      5-min Rain = 0
KGO1 071903Z 08009KT 31/17 A3008 RMK A01 T03120171  RH  043%=      5-min Rain = 0
KGO1 071904Z 08007KT 31/17 A3008 RMK A01 T03090171  RH  044%=      5-min Rain = 0
KGO1 071905Z 07007KT 31/17 A3008 RMK A01 T03090171  RH  044%=      5-min Rain = 0
KGO1 071906Z 10007KT 31/17 A3008 RMK A01 T03110171  RH  043%=      5-min Rain = 0
KGO1 071907Z 11008KT 31/17 A3008 RMK A01 T03130172  RH  043%=      5-min Rain = 0
KGO1 071908Z 12008KT 31/17 A3008 RMK A01 T03140172  RH  043%=      5-min Rain = 0
KGO1 071909Z 16005KT 31/17 A3008 RMK A01 T03130171  RH  043%=      5-min Rain = 0
KGO1 071910Z 10008G13KT 31/17 A3008 RMK A01 T03110171  RH  043%=      5-min Rain = 0
KGO1 071911Z 09009KT 31/17 A3008 RMK A01 T03110172  RH  043%=      5-min Rain = 0
KGO1 071912Z 08007KT 31/17 A3008 RMK A01 T03130174  RH  044%=      5-min Rain = 0
KGO1 071913Z 08007KT 31/18 A3008 RMK A01 T03140175  RH  043%=      5-min Rain = 0
KGO1 071914Z 09010KT 31/18 A3008 RMK A01 T03130175  RH  044%=      5-min Rain = 0
KGO1 071915Z 08010KT 31/17 A3008 RMK A01 T03130173  RH  043%=      5-min Rain = 0
KGO1 071916Z 06007KT 31/18 A3008 RMK A01 T03120175  RH  044%=      5-min Rain = 0
KGO1 071917Z 06007KT 31/18 A3008 RMK A01 T03110175  RH  044%=      5-min Rain = 0
KGO1 071918Z 07008KT 31/18 A3007 RMK A01 T03130176  RH  044%=      5-min Rain = 0
KGO1 071919Z 08006KT 32/18 A3007 RMK A01 T03150176  RH  043%=      5-min Rain = 0
KGO1 071920Z 08004KT 31/18 A3007 RMK A01 T03130176  RH  044%=      5-min Rain = 0
KGO1 071921Z 11005KT 31/18 A3007 RMK A01 T03110178  RH  045%=      5-min Rain = 0
KGO1 071922Z 11006KT 31/18 A3007 RMK A01 T03120181  RH  046%=      5-min Rain = 0
KGO1 071923Z 11009KT 32/18 A3007 RMK A01 T03160182  RH  045%=      5-min Rain = 0
KGO1 071924Z 11007KT 32/18 A3007 RMK A01 T03210181  RH  043%=      5-min Rain = 0
KGO1 071925Z 08006KT 32/18 A3007 RMK A01 T03190176  RH  042%=      5-min Rain = 0
KGO1 071926Z 08007KT 31/18 A3007 RMK A01 T03140175  RH  044%=      5-min Rain = 0
KGO1 071927Z 09008KT 31/18 A3007 RMK A01 T03120176  RH  044%=      5-min Rain = 0
KGO1 071928Z 07008KT 31/18 A3007 RMK A01 T03120178  RH  045%=      5-min Rain = 0
KGO1 071929Z 11007KT 32/18 A3007 RMK A01 T03160178  RH  044%=      5-min Rain = 0
KGO1 071930Z 08006KT 32/18 A3007 RMK A01 T03180178  RH  043%=      5-min Rain = 0
KGO1 071931Z 08007KT 32/18 A3007 RMK A01 T03180176  RH  043%=      5-min Rain = 0
KGO1 071932Z 09006KT 32/18 A3007 RMK A01 T03150175  RH  043%=      5-min Rain = 0
KGO1 071933Z 07006KT 31/18 A3007 RMK A01 T03130176  RH  044%=      5-min Rain = 0
KGO1 071934Z 08009KT 31/17 A3007 RMK A01 T03140173  RH  043%=      5-min Rain = 0
KGO1 071935Z 10011KT 32/18 A3007 RMK A01 T03160175  RH  043%=      5-min Rain = 0
KGO1 071936Z 08011KT 32/17 A3007 RMK A01 T03180174  RH  042%=      5-min Rain = 0
KGO1 071937Z 10011KT 32/17 A3007 RMK A01 T03190173  RH  042%=      5-min Rain = 0
KGO1 071938Z 11010KT 32/17 A3007 RMK A01 T03180174  RH  042%=      5-min Rain = 0
KGO1 071939Z 10010KT 32/17 A3007 RMK A01 T03180173  RH  042%=      5-min Rain = 0
KGO1 071940Z 10009KT 32/17 A3007 RMK A01 T03180170  RH  041%=      5-min Rain = 0
KGO1 071941Z 11007KT 31/17 A3007 RMK A01 T03140169  RH  042%=      5-min Rain = 0
KGO1 071942Z 08005KT 31/17 A3007 RMK A01 T03100168  RH  043%=      5-min Rain = 0
KGO1 071943Z 09008KT 31/17 A3006 RMK A01 T03090171  RH  043%=      5-min Rain = 0
KGO1 071944Z 11008KT 31/17 A3006 RMK A01 T03140172  RH  043%=      5-min Rain = 0
KGO1 071945Z 13006KT 32/17 A3006 RMK A01 T03170171  RH  042%=      5-min Rain = 0
KGO1 071946Z 10010KT 32/17 A3006 RMK A01 T03170174  RH  042%=      5-min Rain = 0
KGO1 071947Z 10011KT 32/17 A3006 RMK A01 T03220173  RH  041%=      5-min Rain = 0
KGO1 071948Z 13009KT 32/17 A3006 RMK A01 T03230171  RH  040%=      5-min Rain = 0
KGO1 071949Z 11009KT 32/17 A3006 RMK A01 T03210170  RH  040%=      5-min Rain = 0
KGO1 071950Z 08009KT 32/17 A3006 RMK A01 T03210169  RH  040%=      5-min Rain = 0
KGO1 071951Z 09010KT 32/17 A3006 RMK A01 T03200171  RH  041%=      5-min Rain = 0
KGO1 071952Z 11011G16KT 32/17 A3006 RMK A01 T03220171  RH  040%=      5-min Rain = 0
KGO1 071953Z 11009KT 32/17 A3006 RMK A01 T03240168  RH  039%=      5-min Rain = 0
KGO1 071954Z 09011KT 32/17 A3006 RMK A01 T03200166  RH  040%=      5-min Rain = 0
KGO1 071955Z 08008KT 32/17 A3006 RMK A01 T03170165  RH  040%=      5-min Rain = 0
KGO1 071956Z 08005KT 32/16 A3006 RMK A01 T03150162  RH  040%=      5-min Rain = 0
KGO1 071957Z 07007KT 31/16 A3006 RMK A01 T03130164  RH  041%=      5-min Rain = 0
KGO1 071958Z 08007KT 31/16 A3006 RMK A01 T03140163  RH  040%=      5-min Rain = 0
KGO1 071959Z 08006KT 32/17 A3006 RMK A01 T03150165  RH  041%=      5-min Rain = 0
KGO1 072000Z 08006KT 32/16 A3006 RMK A01 T03170164  RH  040%=      5-min Rain = 0
KGO1 072001Z 12008KT 32/17 A3006 RMK A01 T03180170  RH  041%=      5-min Rain = 0
KGO1 072002Z 09007KT 32/17 A3005 RMK A01 T03200170  RH  041%=      5-min Rain = 0
KGO1 072003Z 08007KT 32/17 A3005 RMK A01 T03220170  RH  040%=      5-min Rain = 0
KGO1 072004Z 08006KT 32/17 A3005 RMK A01 T03240169  RH  040%=      5-min Rain = 0
KGO1 072005Z 07009KT 32/17 A3005 RMK A01 T03240167  RH  039%=      5-min Rain = 0
KGO1 072006Z 10009KT 32/17 A3005 RMK A01 T03220169  RH  040%=      5-min Rain = 0
KGO1 072007Z 13009KT 32/17 A3005 RMK A01 T03230172  RH  040%=      5-min Rain = 0
KGO1 072008Z 14007KT 32/17 A3005 RMK A01 T03240169  RH  040%=      5-min Rain = 0
KGO1 072009Z 09008G13KT 32/17 A3005 RMK A01 T03220171  RH  040%=      5-min Rain = 0
KGO1 072010Z 10008KT 32/17 A3005 RMK A01 T03230168  RH  040%=      5-min Rain = 0
KGO1 072011Z 08007KT 32/17 A3005 RMK A01 T03220167  RH  040%=      5-min Rain = 0
KGO1 072012Z 07007KT 32/17 A3005 RMK A01 T03170165  RH  040%=      5-min Rain = 0
KGO1 072013Z 08006KT 31/17 A3005 RMK A01 T03120167  RH  042%=      5-min Rain = 0
KGO1 072014Z 11010KT 31/17 A3005 RMK A01 T03120173  RH  043%=      5-min Rain = 0
KGO1 072015Z 11009KT 32/17 A3005 RMK A01 T03180168  RH  040%=      5-min Rain = 0
KGO1 072016Z 09007KT 32/17 A3005 RMK A01 T03170168  RH  041%=      5-min Rain = 0
KGO1 072017Z 09008KT 32/17 A3005 RMK A01 T03180167  RH  040%=      5-min Rain = 0
KGO1 072018Z 09009KT 32/17 A3005 RMK A01 T03190169  RH  041%=      5-min Rain = 0
KGO1 072019Z 08006KT 32/17 A3005 RMK A01 T03200169  RH  040%=      5-min Rain = 0
KGO1 072020Z 09007KT 32/17 A3005 RMK A01 T03190168  RH  040%=      5-min Rain = 0
KGO1 072021Z 08009KT 32/17 A3005 RMK A01 T03190169  RH  041%=      5-min Rain = 0
KGO1 072022Z 08011KT 32/17 A3004 RMK A01 T03240170  RH  040%=      5-min Rain = 0
KGO1 072023Z 08009KT 32/17 A3004 RMK A01 T03210165  RH  039%=      5-min Rain = 0
KGO1 072024Z 07009KT 32/17 A3004 RMK A01 T03150165  RH  040%=      5-min Rain = 0
KGO1 072025Z 08008KT 31/16 A3004 RMK A01 T03110163  RH  041%=      5-min Rain = 0
KGO1 072026Z 10011KT 31/17 A3005 RMK A01 T03080167  RH  043%=      5-min Rain = 0
KGO1 072027Z 10010KT 31/17 A3005 RMK A01 T03080167  RH  043%=      5-min Rain = 0
KGO1 072028Z 09007KT 31/17 A3005 RMK A01 T03070166  RH  043%=      5-min Rain = 0
KGO1 072029Z 10005KT 31/17 A3004 RMK A01 T03050167  RH  043%=      5-min Rain = 0
KGO1 072030Z 10008KT 31/17 A3004 RMK A01 T03050165  RH  043%=      5-min Rain = 0
KGO1 072031Z 10010KT 30/17 A3005 RMK A01 T03040165  RH  043%=      5-min Rain = 0
KGO1 072032Z 09010KT 31/17 A3004 RMK A01 T03050166  RH  043%=      5-min Rain = 0
KGO1 072033Z 08007KT 31/17 A3004 RMK A01 T03070166  RH  043%=      5-min Rain = 0
KGO1 072034Z 11008KT 31/17 A3004 RMK A01 T03100168  RH  042%=      5-min Rain = 0
KGO1 072035Z 12006KT 31/17 A3004 RMK A01 T03120165  RH  041%=      5-min Rain = 0
KGO1 072036Z 12003KT 31/17 A3004 RMK A01 T03100165  RH  042%=      5-min Rain = 0
KGO1 072037Z 14004KT 31/17 A3004 RMK A01 T03080166  RH  042%=      5-min Rain = 0
KGO1 072038Z 15009KT 31/17 A3004 RMK A01 T03070168  RH  043%=      5-min Rain = 0
KGO1 072039Z 14011KT 31/17 A3004 RMK A01 T03080171  RH  044%=      5-min Rain = 0
KGO1 072040Z 14012KT 31/17 A3004 RMK A01 T03130171  RH  043%=      5-min Rain = 0
KGO1 072041Z 14009KT 32/17 A3004 RMK A01 T03170171  RH  042%=      5-min Rain = 0
KGO1 072042Z 14008KT 32/17 A3004 RMK A01 T03190170  RH  041%=      5-min Rain = 0
KGO1 072043Z 14007KT 32/17 A3004 RMK A01 T03190171  RH  041%=      5-min Rain = 0
KGO1 072044Z 14011KT 32/17 A3004 RMK A01 T03190172  RH  042%=      5-min Rain = 0
KGO1 072045Z 13012KT 32/17 A3004 RMK A01 T03200170  RH  041%=      5-min Rain = 0
KGO1 072046Z 12012KT 32/17 A3004 RMK A01 T03180165  RH  040%=      5-min Rain = 0
KGO1 072047Z 11012KT 31/16 A3004 RMK A01 T03130162  RH  040%=      5-min Rain = 0
KGO1 072048Z 10012KT 31/16 A3004 RMK A01 T03090162  RH  041%=      5-min Rain = 0
KGO1 072049Z 11009KT 31/16 A3004 RMK A01 T03060162  RH  042%=      5-min Rain = 0
KGO1 072050Z 10012KT 31/16 A3004 RMK A01 T03050163  RH  042%=      5-min Rain = 0
KGO1 072051Z 11010KT 31/16 A3004 RMK A01 T03060164  RH  042%=      5-min Rain = 0
KGO1 072052Z 10013KT 31/16 A3004 RMK A01 T03070164  RH  042%=      5-min Rain = 0
KGO1 072053Z 09008KT 31/16 A3004 RMK A01 T03070163  RH  042%=      5-min Rain = 0
KGO1 072054Z 08010KT 31/16 A3004 RMK A01 T03060162  RH  042%=      5-min Rain = 0
KGO1 072055Z 11012KT 30/17 A3004 RMK A01 T03040165  RH  043%=      5-min Rain = 0
KGO1 072056Z 12011KT 30/17 A3004 RMK A01 T03040165  RH  043%=      5-min Rain = 0
KGO1 072057Z 11013KT 30/16 A3004 RMK A01 T03040163  RH  043%=      5-min Rain = 0
KGO1 072058Z 10011KT 30/16 A3004 RMK A01 T03040164  RH  043%=      5-min Rain = 0
KGO1 072059Z 11012KT 30/17 A3004 RMK A01 T03030166  RH  044%=      5-min Rain = 0
KGO1 072100Z 13012KT 30/17 A3004 RMK A01 T03030166  RH  044%=      5-min Rain = 0
KGO1 072101Z 12010KT 30/17 A3004 RMK A01 T03020167  RH  044%=      5-min Rain = 0
KGO1 072102Z 11009KT 30/17 A3003 RMK A01 T03020166  RH  044%=      5-min Rain = 0
KGO1 072103Z 11009KT 30/17 A3003 RMK A01 T03020167  RH  044%=      5-min Rain = 0
KGO1 072104Z 11008KT 30/17 A3003 RMK A01 T03020168  RH  045%=      5-min Rain = 0
KGO1 072105Z 11008KT 30/17 A3003 RMK A01 T03020168  RH  045%=      5-min Rain = 0
KGO1 072106Z 11009KT 30/17 A3003 RMK A01 T03020168  RH  044%=      5-min Rain = 0
KGO1 072107Z 11006KT 30/17 A3003 RMK A01 T03030167  RH  044%=      5-min Rain = 0
KGO1 072108Z 12005KT 30/17 A3003 RMK A01 T03030170  RH  045%=      5-min Rain = 0
KGO1 072109Z 12013KT 31/17 A3003 RMK A01 T03050167  RH  044%=      5-min Rain = 0
KGO1 072110Z 12015KT 31/16 A3003 RMK A01 T03060164  RH  042%=      5-min Rain = 0
KGO1 072111Z 13013KT 31/16 A3003 RMK A01 T03060164  RH  043%=      5-min Rain = 0
KGO1 072112Z 12012KT 31/17 A3003 RMK A01 T03060166  RH  043%=      5-min Rain = 0
KGO1 072113Z 11011KT 31/17 A3003 RMK A01 T03070167  RH  043%=      5-min Rain = 0
KGO1 072114Z 11013KT 31/17 A3003 RMK A01 T03130167  RH  042%=      5-min Rain = 0
KGO1 072115Z 11011KT 32/17 A3003 RMK A01 T03160168  RH  041%=      5-min Rain = 0
KGO1 072116Z 11010KT 32/17 A3003 RMK A01 T03190173  RH  042%=      5-min Rain = 0
KGO1 072117Z 11010KT 32/17 A3003 RMK A01 T03230173  RH  041%=      5-min Rain = 0
KGO1 072118Z 10011KT 32/17 A3003 RMK A01 T03240173  RH  041%=      5-min Rain = 0
KGO1 072119Z 11010KT 32/17 A3003 RMK A01 T03220168  RH  040%=      5-min Rain = 0
KGO1 072120Z 10011KT 32/17 A3003 RMK A01 T03180170  RH  041%=      5-min Rain = 0
KGO1 072121Z 10012KT 32/17 A3003 RMK A01 T03210168  RH  040%=      5-min Rain = 0
KGO1 072122Z 10010KT 32/17 A3003 RMK A01 T03200166  RH  040%=      5-min Rain = 0
KGO1 072123Z 11009KT 32/17 A3002 RMK A01 T03180169  RH  041%=      5-min Rain = 0
KGO1 072124Z 11011KT 32/17 A3002 RMK A01 T03220171  RH  040%=      5-min Rain = 0
KGO1 072125Z 10012KT 32/17 A3002 RMK A01 T03240171  RH  040%=      5-min Rain = 0
KGO1 072126Z 09011KT 33/17 A3002 RMK A01 T03250170  RH  040%=      5-min Rain = 0
KGO1 072127Z 10011KT 32/17 A3002 RMK A01 T03230171  RH  040%=      5-min Rain = 0
KGO1 072128Z 12011KT 32/17 A3002 RMK A01 T03230172  RH  041%=      5-min Rain = 0
KGO1 072129Z 11009KT 32/17 A3002 RMK A01 T03220172  RH  041%=      5-min Rain = 0
KGO1 072130Z 12010KT 32/17 A3002 RMK A01 T03210173  RH  041%=      5-min Rain = 0
KGO1 072131Z 12012KT 32/17 A3002 RMK A01 T03200172  RH  041%=      5-min Rain = 0
KGO1 072132Z 16013KT 32/18 A3002 RMK A01 T03190177  RH  043%=      5-min Rain = 0
KGO1 072133Z 16011KT 32/17 A3002 RMK A01 T03210174  RH  041%=      5-min Rain = 0
KGO1 072134Z 17009KT 32/17 A3002 RMK A01 T03210174  RH  042%=      5-min Rain = 0
KGO1 072135Z 16010KT 32/18 A3002 RMK A01 T03190177  RH  043%=      5-min Rain = 0
KGO1 072136Z 15011KT 32/18 A3002 RMK A01 T03230177  RH  042%=      5-min Rain = 0
KGO1 072137Z 17011G16KT 32/17 A3002 RMK A01 T03210172  RH  041%=      5-min Rain = 0
KGO1 072138Z 12015KT 32/18 A3001 RMK A01 T03170175  RH  043%=      5-min Rain = 0
KGO1 072139Z 10011KT 32/17 A3002 RMK A01 T03200171  RH  041%=      5-min Rain = 0
KGO1 072140Z 12009KT 32/17 A3002 RMK A01 T03210171  RH  041%=      5-min Rain = 0
KGO1 072141Z 11009KT 32/18 A3001 RMK A01 T03220175  RH  042%=      5-min Rain = 0
KGO1 072142Z 14009KT 33/17 A3001 RMK A01 T03250174  RH  041%=      5-min Rain = 0
KGO1 072143Z 15009KT 33/18 A3001 RMK A01 T03250180  RH  042%=      5-min Rain = 0
KGO1 072144Z 16012KT 33/18 A3001 RMK A01 T03290178  RH  041%=      5-min Rain = 0
KGO1 072145Z 16009KT 33/18 A3001 RMK A01 T03270179  RH  041%=      5-min Rain = 0
KGO1 072146Z 13014KT 33/18 A3001 RMK A01 T03260178  RH  041%=      5-min Rain = 0
KGO1 072147Z 14014KT 33/18 A3001 RMK A01 T03290179  RH  041%=      5-min Rain = 0
KGO1 072148Z 15012KT 33/18 A3001 RMK A01 T03320178  RH  040%=      5-min Rain = 0
KGO1 072149Z 12011KT 33/18 A3001 RMK A01 T03310176  RH  040%=      5-min Rain = 0
KGO1 072150Z 12011KT 33/17 A3001 RMK A01 T03290173  RH  039%=      5-min Rain = 0
KGO1 072151Z 12011KT 33/18 A3001 RMK A01 T03260176  RH  041%=      5-min Rain = 0
KGO1 072152Z 13012KT 33/17 A3001 RMK A01 T03270174  RH  040%=      5-min Rain = 0
KGO1 072153Z 13011KT 33/17 A3001 RMK A01 T03260174  RH  040%=      5-min Rain = 0
KGO1 072154Z 11011KT 33/17 A3001 RMK A01 T03250174  RH  041%=      5-min Rain = 0
KGO1 072155Z 12010KT 32/17 A3001 RMK A01 T03230174  RH  041%=      5-min Rain = 0
KGO1 072156Z 11010KT 32/18 A3001 RMK A01 T03240176  RH  041%=      5-min Rain = 0
KGO1 072157Z 11008KT 33/17 A3001 RMK A01 T03260173  RH  040%=      5-min Rain = 0
KGO1 072158Z 11008KT 33/18 A3001 RMK A01 T03250175  RH  041%=      5-min Rain = 0
KGO1 072159Z 11013KT 33/17 A3001 RMK A01 T03270174  RH  040%=      5-min Rain = 0
KGO1 072200Z 11012KT 32/17 A3001 RMK A01 T03230171  RH  040%=      5-min Rain = 0
KGO1 072201Z 11009KT 32/17 A3001 RMK A01 T03170171  RH  042%=      5-min Rain = 0
KGO1 072202Z 12013KT 32/17 A3001 RMK A01 T03180174  RH  042%=      5-min Rain = 0
KGO1 072203Z 11010KT 32/17 A3001 RMK A01 T03210174  RH  041%=      5-min Rain = 0
KGO1 072204Z 13008KT 32/17 A3001 RMK A01 T03210171  RH  041%=      5-min Rain = 0
KGO1 072205Z 13009KT 32/17 A3001 RMK A01 T03150170  RH  042%=      5-min Rain = 0
KGO1 072206Z 15009KT 31/17 A3001 RMK A01 T03120168  RH  042%=      5-min Rain = 0
KGO1 072207Z 15009KT 31/17 A3001 RMK A01 T03110167  RH  042%=      5-min Rain = 0
KGO1 072208Z 15008KT 31/17 A3001 RMK A01 T03100168  RH  042%=      5-min Rain = 0
KGO1 072209Z 14010KT 31/17 A3001 RMK A01 T03140172  RH  043%=      5-min Rain = 0
KGO1 072210Z 13010KT 32/17 A30 RMK A01 T03190174  RH  042%=      5-min Rain = 0
KGO1 072211Z 12011KT 32/18 A30 RMK A01 T03240175  RH  041%=      5-min Rain = 0
KGO1 072212Z 13013KT 33/17 A30 RMK A01 T03270172  RH  040%=      5-min Rain = 0
KGO1 072213Z 13012KT 33/17 A30 RMK A01 T03260170  RH  039%=      5-min Rain = 0
KGO1 072214Z 14013KT 32/17 A30 RMK A01 T03240170  RH  040%=      5-min Rain = 0
KGO1 072215Z 13011KT 32/17 A30 RMK A01 T03240168  RH  039%=      5-min Rain = 0
KGO1 072216Z 13008KT 32/17 A30 RMK A01 T03230167  RH  039%=      5-min Rain = 0
KGO1 072217Z 12010KT 32/17 A30 RMK A01 T03210169  RH  040%=      5-min Rain = 0
KGO1 072218Z 13011KT 32/17 A30 RMK A01 T03210167  RH  040%=      5-min Rain = 0
KGO1 072219Z 12009KT 32/17 A30 RMK A01 T03160166  RH  041%=      5-min Rain = 0
KGO1 072220Z 12008KT 31/17 A30 RMK A01 T03130168  RH  042%=      5-min Rain = 0
KGO1 072221Z 12008KT 31/17 A30 RMK A01 T03100166  RH  042%=      5-min Rain = 0
KGO1 072222Z 12011KT 31/17 A30 RMK A01 T03080167  RH  043%=      5-min Rain = 0
KGO1 072223Z 13008KT 31/17 A30 RMK A01 T03070167  RH  043%=      5-min Rain = 0
KGO1 072224Z 13011KT 31/17 A30 RMK A01 T03100170  RH  043%=      5-min Rain = 0
KGO1 072225Z 12012KT 32/17 A30 RMK A01 T03160168  RH  041%=      5-min Rain = 0
KGO1 072226Z 13010KT 32/17 A30 RMK A01 T03200167  RH  040%=      5-min Rain = 0
KGO1 072227Z 14013KT 32/17 A2999 RMK A01 T03220166  RH  039%=      5-min Rain = 0
KGO1 072228Z 16013KT 32/16 A2999 RMK A01 T03230163  RH  038%=      5-min Rain = 0
KGO1 072229Z 15011KT 32/16 A2999 RMK A01 T03210163  RH  038%=      5-min Rain = 0
KGO1 072230Z 13012KT 32/16 A30 RMK A01 T03210163  RH  039%=      5-min Rain = 0
KGO1 072231Z 12009KT 32/16 A30 RMK A01 T03200162  RH  039%=      5-min Rain = 0
KGO1 072232Z 12012KT 32/16 A2999 RMK A01 T03200164  RH  039%=      5-min Rain = 0
KGO1 072233Z 13008KT 32/16 A2999 RMK A01 T03210163  RH  039%=      5-min Rain = 0
KGO1 072234Z 14010KT 32/16 A2999 RMK A01 T03220164  RH  039%=      5-min Rain = 0
KGO1 072235Z 13010KT 32/16 A2999 RMK A01 T03230162  RH  038%=      5-min Rain = 0
KGO1 072236Z 13011KT 32/16 A2999 RMK A01 T03230163  RH  038%=      5-min Rain = 0
KGO1 072237Z 12010KT 32/16 A2999 RMK A01 T03220162  RH  038%=      5-min Rain = 0
KGO1 072238Z 10009KT 32/16 A2999 RMK A01 T03210161  RH  038%=      5-min Rain = 0
KGO1 072239Z 12007KT 32/16 A2999 RMK A01 T03210162  RH  038%=      5-min Rain = 0
KGO1 072240Z 11008KT 32/16 A2999 RMK A01 T03230164  RH  039%=      5-min Rain = 0
KGO1 072241Z 12009G14KT 33/17 A2999 RMK A01 T03260165  RH  038%=      5-min Rain = 0
KGO1 072242Z 13012KT 33/17 A2999 RMK A01 T03260165  RH  038%=      5-min Rain = 0
KGO1 072243Z 13010KT 33/16 A2999 RMK A01 T03250163  RH  038%=      5-min Rain = 0
KGO1 072244Z 14011KT 32/16 A2999 RMK A01 T03230161  RH  038%=      5-min Rain = 0
KGO1 072245Z 13011KT 32/16 A2999 RMK A01 T03220162  RH  038%=      5-min Rain = 0
KGO1 072246Z 12010KT 32/16 A2999 RMK A01 T03220162  RH  038%=      5-min Rain = 0
KGO1 072247Z 11011KT 32/16 A2999 RMK A01 T03220162  RH  038%=      5-min Rain = 0
KGO1 072248Z 11011KT 32/16 A2999 RMK A01 T03230162  RH  038%=      5-min Rain = 0
KGO1 072249Z 11012KT 32/16 A2999 RMK A01 T03220162  RH  038%=      5-min Rain = 0
KGO1 072250Z 14011KT 32/16 A2999 RMK A01 T03240164  RH  038%=      5-min Rain = 0
KGO1 072251Z 16009KT 33/16 A2998 RMK A01 T03260159  RH  037%=      5-min Rain = 0
KGO1 072252Z 14012KT 32/16 A2998 RMK A01 T03240160  RH  037%=      5-min Rain = 0
KGO1 072253Z 12011KT 32/16 A2998 RMK A01 T03230162  RH  038%=      5-min Rain = 0
KGO1 072254Z 11011KT 32/16 A2999 RMK A01 T03220160  RH  038%=      5-min Rain = 0
KGO1 072255Z 11009KT 32/16 A2998 RMK A01 T03220161  RH  038%=      5-min Rain = 0
KGO1 072256Z 12009KT 32/16 A2998 RMK A01 T03210163  RH  039%=      5-min Rain = 0
KGO1 072257Z 13012KT 32/16 A2998 RMK A01 T03210163  RH  039%=      5-min Rain = 0
KGO1 072258Z 13013KT 32/16 A2998 RMK A01 T03230159  RH  037%=      5-min Rain = 0
KGO1 072259Z 13013G19KT 32/16 A2998 RMK A01 T03210157  RH  037%=      5-min Rain = 0
KGO1 072300Z 14012KT 32/15 A2998 RMK A01 T03200153  RH  037%=      5-min Rain = 0
KGO1 072301Z 16011KT 32/16 A2998 RMK A01 T03180156  RH  038%=      5-min Rain = 0
KGO1 072302Z 16013KT 32/16 A2998 RMK A01 T03190156  RH  037%=      5-min Rain = 0
KGO1 072303Z 15014KT 32/16 A2998 RMK A01 T03200155  RH  037%=      5-min Rain = 0
KGO1 072304Z 14013KT 32/16 A2998 RMK A01 T03200155  RH  037%=      5-min Rain = 0
KGO1 072305Z 14012KT 32/16 A2998 RMK A01 T03200155  RH  037%=      5-min Rain = 0
KGO1 072306Z 14010KT 32/16 A2998 RMK A01 T03200156  RH  037%=      5-min Rain = 0
KGO1 072307Z 16013G18KT 32/16 A2998 RMK A01 T03210158  RH  037%=      5-min Rain = 0
KGO1 072308Z 17012KT 32/16 A2998 RMK A01 T03240155  RH  036%=      5-min Rain = 0
KGO1 072309Z 16011KT 32/16 A2998 RMK A01 T03230155  RH  036%=      5-min Rain = 0
KGO1 072310Z 16012KT 32/16 A2998 RMK A01 T03220155  RH  037%=      5-min Rain = 0
KGO1 072311Z 16009KT 32/16 A2998 RMK A01 T03220156  RH  037%=      5-min Rain = 0
KGO1 072312Z 15011KT 32/16 A2998 RMK A01 T03220156  RH  037%=      5-min Rain = 0
KGO1 072313Z 15014KT 32/16 A2998 RMK A01 T03220156  RH  037%=      5-min Rain = 0
KGO1 072314Z 15014KT 32/15 A2998 RMK A01 T03220153  RH  036%=      5-min Rain = 0
KGO1 072315Z 16013KT 32/15 A2998 RMK A01 T03210152  RH  036%=      5-min Rain = 0
KGO1 072316Z 16015KT 32/15 A2998 RMK A01 T03200152  RH  036%=      5-min Rain = 0
KGO1 072317Z 15015KT 32/15 A2998 RMK A01 T03190152  RH  036%=      5-min Rain = 0
KGO1 072318Z 15013KT 32/15 A2998 RMK A01 T03180153  RH  037%=      5-min Rain = 0
KGO1 072319Z 16010KT 32/15 A2998 RMK A01 T03170150  RH  036%=      5-min Rain = 0
KGO1 072320Z 17011KT 32/15 A2998 RMK A01 T03160151  RH  037%=      5-min Rain = 0
KGO1 072321Z 13010KT 32/16 A2998 RMK A01 T03170155  RH  038%=      5-min Rain = 0
KGO1 072322Z 13014KT 32/15 A2998 RMK A01 T03200152  RH  036%=      5-min Rain = 0
KGO1 072323Z 14013KT 32/15 A2998 RMK A01 T03210153  RH  036%=      5-min Rain = 0
KGO1 072324Z 13010KT 32/15 A2998 RMK A01 T03210152  RH  036%=      5-min Rain = 0
KGO1 072325Z 11011KT 32/15 A2998 RMK A01 T03210153  RH  036%=      5-min Rain = 0
KGO1 072326Z 13015KT 32/15 A2998 RMK A01 T03210152  RH  036%=      5-min Rain = 0
KGO1 072327Z 14014KT 32/15 A2998 RMK A01 T03210151  RH  036%=      5-min Rain = 0
KGO1 072328Z 14014KT 32/15 A2998 RMK A01 T03210148  RH  035%=      5-min Rain = 0
KGO1 072329Z 15012KT 32/15 A2998 RMK A01 T03190148  RH  035%=      5-min Rain = 0
KGO1 072330Z 15014KT 32/15 A2998 RMK A01 T03190148  RH  036%=      5-min Rain = 0
KGO1 072331Z 14012KT 32/15 A2999 RMK A01 T03190150  RH  036%=      5-min Rain = 0
KGO1 072332Z 15011KT 32/15 A2998 RMK A01 T03190149  RH  036%=      5-min Rain = 0
KGO1 072333Z 15013KT 32/15 A2999 RMK A01 T03200149  RH  036%=      5-min Rain = 0
KGO1 072334Z 15013KT 32/15 A2998 RMK A01 T03190148  RH  036%=      5-min Rain = 0
KGO1 072335Z 16012KT 32/15 A2998 RMK A01 T03180148  RH  036%=      5-min Rain = 0
KGO1 072336Z 16013KT 32/15 A2998 RMK A01 T03170149  RH  036%=      5-min Rain = 0
KGO1 072337Z 16012KT 32/15 A2998 RMK A01 T03180148  RH  036%=      5-min Rain = 0
KGO1 072338Z 14010KT 32/15 A2998 RMK A01 T03180150  RH  036%=      5-min Rain = 0
KGO1 072339Z 14010KT 32/15 A2998 RMK A01 T03180152  RH  037%=      5-min Rain = 0
KGO1 072340Z 14009KT 32/15 A2998 RMK A01 T03190150  RH  036%=      5-min Rain = 0
KGO1 072341Z 15012KT 32/15 A2998 RMK A01 T03180151  RH  036%=      5-min Rain = 0
KGO1 072342Z 14012KT 32/15 A2998 RMK A01 T03180150  RH  036%=      5-min Rain = 0
KGO1 072343Z 14011KT 32/15 A2998 RMK A01 T03190148  RH  036%=      5-min Rain = 0
KGO1 072344Z 14012KT 32/15 A2998 RMK A01 T03210149  RH  035%=      5-min Rain = 0
KGO1 072345Z 13011KT 32/15 A2998 RMK A01 T03210146  RH  035%=      5-min Rain = 0
KGO1 072346Z 14010KT 32/15 A2998 RMK A01 T03190146  RH  035%=      5-min Rain = 0
KGO1 072347Z 13011KT 32/14 A2998 RMK A01 T03170144  RH  035%=      5-min Rain = 0
KGO1 072348Z 14011KT 32/15 A2998 RMK A01 T03170147  RH  036%=      5-min Rain = 0
KGO1 072349Z 14009KT 32/15 A2998 RMK A01 T03160148  RH  036%=      5-min Rain = 0
KGO1 072350Z 15010KT 32/15 A2998 RMK A01 T03170148  RH  036%=      5-min Rain = 0
KGO1 072351Z 14013KT 32/15 A2999 RMK A01 T03180150  RH  036%=      5-min Rain = 0
KGO1 072352Z 13011KT 32/15 A2999 RMK A01 T03180148  RH  036%=      5-min Rain = 0
KGO1 072353Z 14010KT 32/15 A2999 RMK A01 T03170148  RH  036%=      5-min Rain = 0
KGO1 072354Z 15011KT 32/15 A2999 RMK A01 T03160151  RH  037%=      5-min Rain = 0
KGO1 072355Z 14012KT 32/15 A2999 RMK A01 T03170148  RH  036%=      5-min Rain = 0
KGO1 072356Z 14011KT 32/15 A2999 RMK A01 T03170148  RH  036%=      5-min Rain = 0
KGO1 072357Z 16010KT 32/15 A2998 RMK A01 T03160148  RH  036%=      5-min Rain = 0
KGO1 072358Z 16009KT 32/15 A2998 RMK A01 T03160148  RH  036%=      5-min Rain = 0
KGO1 072359Z 14014KT 32/15 A2998 RMK A01 T03150148  RH  036%=      5-min Rain = 0
KGO1 080000Z 14013KT 32/15 A2998 RMK A01 T03150146  RH  036%=      5-min Rain = 0
KGO1 080001Z 13012KT 32/15 A2999 RMK A01 T03150146  RH  036%=      5-min Rain = 0
KGO1 080002Z 14012KT 32/15 A2999 RMK A01 T03150145  RH  036%=      5-min Rain = 0
KGO1 080003Z 14010KT 31/14 A2999 RMK A01 T03140144  RH  036%=      5-min Rain = 0
KGO1 080004Z 14010KT 31/15 A2999 RMK A01 T03140146  RH  036%=      5-min Rain = 0
KGO1 080005Z 14011KT 32/15 A2999 RMK A01 T03150145  RH  036%=      5-min Rain = 0
KGO1 080006Z 14011KT 32/14 A2999 RMK A01 T03150144  RH  035%=      5-min Rain = 0
KGO1 080007Z 14011KT 32/15 A2999 RMK A01 T03150145  RH  036%=      5-min Rain = 0
KGO1 080008Z 14013KT 32/14 A2998 RMK A01 T03150143  RH  035%=      5-min Rain = 0
KGO1 080009Z 14013KT 31/14 A2998 RMK A01 T03140143  RH  035%=      5-min Rain = 0
KGO1 080010Z 14013KT 31/14 A2999 RMK A01 T03140141  RH  035%=      5-min Rain = 0
KGO1 080011Z 14011KT 31/14 A2999 RMK A01 T03130140  RH  035%=      5-min Rain = 0
KGO1 080012Z 15011KT 31/14 A2999 RMK A01 T03120140  RH  035%=      5-min Rain = 0
KGO1 080013Z 15012KT 31/14 A2999 RMK A01 T03140141  RH  035%=      5-min Rain = 0
KGO1 080014Z 15010KT 31/14 A2999 RMK A01 T03140139  RH  034%=      5-min Rain = 0
KGO1 080015Z 14009KT 31/14 A2999 RMK A01 T03140142  RH  035%=      5-min Rain = 0
KGO1 080016Z 15011KT 31/14 A2999 RMK A01 T03140144  RH  036%=      5-min Rain = 0
KGO1 080017Z 15013KT 31/15 A2999 RMK A01 T03140145  RH  036%=      5-min Rain = 0
KGO1 080018Z 15013KT 31/15 A2999 RMK A01 T03130146  RH  036%=      5-min Rain = 0
KGO1 080019Z 14011KT 31/15 A2999 RMK A01 T03120146  RH  036%=      5-min Rain = 0
KGO1 080020Z 15012KT 31/15 A2999 RMK A01 T03120146  RH  037%=      5-min Rain = 0
KGO1 080021Z 15014KT 31/15 A2999 RMK A01 T03120145  RH  036%=      5-min Rain = 0
KGO1 080022Z 15011KT 31/14 A2999 RMK A01 T03120144  RH  036%=      5-min Rain = 0
KGO1 080023Z 14010KT 31/14 A2999 RMK A01 T03120144  RH  036%=      5-min Rain = 0
KGO1 080024Z 14010KT 31/15 A2999 RMK A01 T03120146  RH  037%=      5-min Rain = 0
KGO1 080025Z 14012KT 31/15 A2999 RMK A01 T03120147  RH  037%=      5-min Rain = 0
KGO1 080026Z 15013KT 31/15 A2999 RMK A01 T03120148  RH  037%=      5-min Rain = 0
KGO1 080027Z 15013KT 31/15 A2999 RMK A01 T03120147  RH  037%=      5-min Rain = 0
KGO1 080028Z 15012KT 31/15 A2999 RMK A01 T03110146  RH  037%=      5-min Rain = 0
KGO1 080029Z 15010KT 31/15 A2999 RMK A01 T03100145  RH  037%=      5-min Rain = 0
KGO1 080030Z 14010KT 31/15 A2999 RMK A01 T03090145  RH  037%=      5-min Rain = 0
KGO1 080031Z 13010KT 31/15 A2999 RMK A01 T03090146  RH  037%=      5-min Rain = 0
KGO1 080032Z 14010KT 31/15 A2999 RMK A01 T03090146  RH  037%=      5-min Rain = 0
KGO1 080033Z 13010KT 31/15 A2999 RMK A01 T03100147  RH  037%=      5-min Rain = 0
KGO1 080034Z 14010KT 31/15 A2999 RMK A01 T03110147  RH  037%=      5-min Rain = 0
KGO1 080035Z 14012KT 31/15 A2999 RMK A01 T03120145  RH  036%=      5-min Rain = 0
KGO1 080036Z 13009KT 31/15 A2999 RMK A01 T03100145  RH  037%=      5-min Rain = 0
KGO1 080037Z 14010KT 31/15 A2999 RMK A01 T03100146  RH  037%=      5-min Rain = 0
KGO1 080038Z 14012KT 31/14 A2999 RMK A01 T03100144  RH  037%=      5-min Rain = 0
KGO1 080039Z 14012KT 31/14 A2999 RMK A01 T03090143  RH  037%=      5-min Rain = 0
KGO1 080040Z 14011KT 31/14 A2999 RMK A01 T03080144  RH  037%=      5-min Rain = 0
KGO1 080041Z 14010KT 31/14 A2999 RMK A01 T03080144  RH  037%=      5-min Rain = 0
KGO1 080042Z 14010KT 31/14 A2999 RMK A01 T03080144  RH  037%=      5-min Rain = 0
KGO1 080043Z 13010KT 31/15 A2999 RMK A01 T03080146  RH  037%=      5-min Rain = 0
KGO1 080044Z 13010KT 31/15 A2999 RMK A01 T03080145  RH  037%=      5-min Rain = 0
KGO1 080045Z 13008KT 31/15 A2999 RMK A01 T03080146  RH  037%=      5-min Rain = 0
KGO1 080046Z 14009KT 31/15 A2999 RMK A01 T03080147  RH  038%=      5-min Rain = 0
KGO1 080047Z 15010KT 31/14 A2999 RMK A01 T03080143  RH  037%=      5-min Rain = 0
KGO1 080048Z 14008KT 31/14 A2999 RMK A01 T03080143  RH  037%=      5-min Rain = 0
KGO1 080049Z 15010KT 31/14 A2999 RMK A01 T03080143  RH  037%=      5-min Rain = 0
KGO1 080050Z 15009KT 31/14 A2999 RMK A01 T03070142  RH  037%=      5-min Rain = 0
KGO1 080051Z 15009KT 31/14 A2999 RMK A01 T03070143  RH  037%=      5-min Rain = 0
KGO1 080052Z 14008KT 31/14 A2999 RMK A01 T03070144  RH  037%=      5-min Rain = 0
KGO1 080053Z 15009KT 31/14 A2999 RMK A01 T03070141  RH  037%=      5-min Rain = 0
KGO1 080054Z 15009KT 31/14 A2999 RMK A01 T03060142  RH  037%=      5-min Rain = 0
KGO1 080055Z 15009KT 31/14 A30 RMK A01 T03060142  RH  037%=      5-min Rain = 0
KGO1 080056Z 15008KT 31/14 A30 RMK A01 T03050143  RH  037%=      5-min Rain = 0
KGO1 080057Z 14011KT 31/15 A30 RMK A01 T03060146  RH  038%=      5-min Rain = 0
KGO1 080058Z 15012KT 31/15 A30 RMK A01 T03050146  RH  038%=      5-min Rain = 0
KGO1 080059Z 14009KT 31/15 A30 RMK A01 T03050148  RH  039%=      5-min Rain = 0
KGO1 080100Z 14011KT 31/15 A30 RMK A01 T03050148  RH  039%=      5-min Rain = 0
KGO1 080101Z 14009KT 30/15 A30 RMK A01 T03040148  RH  039%=      5-min Rain = 0
KGO1 080102Z 14009KT 30/15 A30 RMK A01 T03040149  RH  039%=      5-min Rain = 0
KGO1 080103Z 14010KT 30/15 A30 RMK A01 T03030147  RH  039%=      5-min Rain = 0
KGO1 080104Z 14011KT 30/15 A30 RMK A01 T03030146  RH  038%=      5-min Rain = 0
KGO1 080105Z 14011KT 30/15 A30 RMK A01 T03030146  RH  038%=      5-min Rain = 0
KGO1 080106Z 14013KT 30/15 A30 RMK A01 T03020146  RH  038%=      5-min Rain = 0
KGO1 080107Z 14012KT 30/15 A30 RMK A01 T03020147  RH  039%=      5-min Rain = 0
KGO1 080108Z 15011KT 30/15 A30 RMK A01 T03010148  RH  039%=      5-min Rain = 0
KGO1 080109Z 15012KT 30/15 A30 RMK A01 T03010148  RH  039%=      5-min Rain = 0
KGO1 080110Z 14011KT 30/15 A30 RMK A01 T03010148  RH  039%=      5-min Rain = 0
KGO1 080111Z 14011KT 30/15 A30 RMK A01 T03000148  RH  039%=      5-min Rain = 0
KGO1 080112Z 14010KT 30/15 A30 RMK A01 T03000147  RH  039%=      5-min Rain = 0
KGO1 080113Z 14009KT 30/15 A30 RMK A01 T03000148  RH  040%=      5-min Rain = 0
KGO1 080114Z 14009KT 30/15 A30 RMK A01 T03000149  RH  040%=      5-min Rain = 0
KGO1 080115Z 14011KT 30/15 A30 RMK A01 T03000149  RH  040%=      5-min Rain = 0
KGO1 080116Z 14009KT 30/15 A30 RMK A01 T02990150  RH  040%=      5-min Rain = 0
KGO1 080117Z 14010KT 30/15 A30 RMK A01 T02990150  RH  040%=      5-min Rain = 0
KGO1 080118Z 14009KT 30/15 A30 RMK A01 T02980150  RH  041%=      5-min Rain = 0
KGO1 080119Z 14009KT 30/15 A30 RMK A01 T02980152  RH  041%=      5-min Rain = 0
KGO1 080120Z 14011KT 30/15 A30 RMK A01 T02980152  RH  041%=      5-min Rain = 0
KGO1 080121Z 14012KT 30/15 A30 RMK A01 T02970152  RH  041%=      5-min Rain = 0
KGO1 080122Z 14011KT 30/15 A30 RMK A01 T02970152  RH  041%=      5-min Rain = 0
KGO1 080123Z 14010KT 30/15 A30 RMK A01 T02960153  RH  042%=      5-min Rain = 0
KGO1 080124Z 14010KT 30/15 A30 RMK A01 T02960154  RH  042%=      5-min Rain = 0
KGO1 080125Z 14010KT 30/15 A30 RMK A01 T02950154  RH  042%=      5-min Rain = 0
KGO1 080126Z 14011KT 30/15 A30 RMK A01 T02950153  RH  042%=      5-min Rain = 0
KGO1 080127Z 14011KT 29/15 A30 RMK A01 T02940152  RH  042%=      5-min Rain = 0
KGO1 080128Z 14011KT 29/15 A30 RMK A01 T02940153  RH  042%=      5-min Rain = 0
KGO1 080129Z 14011KT 29/15 A30 RMK A01 T02940154  RH  043%=      5-min Rain = 0
KGO1 080130Z 14012KT 29/15 A30 RMK A01 T02930154  RH  043%=      5-min Rain = 0
KGO1 080131Z 14011KT 29/16 A30 RMK A01 T02930155  RH  043%=      5-min Rain = 0
KGO1 080132Z 14011KT 29/16 A30 RMK A01 T02920155  RH  044%=      5-min Rain = 0
KGO1 080133Z 14011KT 29/16 A30 RMK A01 T02910155  RH  044%=      5-min Rain = 0
KGO1 080134Z 14010KT 29/16 A30 RMK A01 T02900155  RH  044%=      5-min Rain = 0
KGO1 080135Z 14010KT 29/16 A30 RMK A01 T02890156  RH  044%=      5-min Rain = 0
KGO1 080136Z 14011KT 29/16 A30 RMK A01 T02880155  RH  045%=      5-min Rain = 0
KGO1 080137Z 14011KT 29/16 A30 RMK A01 T02870156  RH  045%=      5-min Rain = 0
KGO1 080138Z 14012KT 29/16 A30 RMK A01 T02870156  RH  045%=      5-min Rain = 0
KGO1 080139Z 14011KT 29/16 A30 RMK A01 T02860156  RH  045%=      5-min Rain = 0
KGO1 080140Z 14010KT 29/16 A30 RMK A01 T02860156  RH  045%=      5-min Rain = 0
KGO1 080141Z 14009KT 29/16 A30 RMK A01 T02850156  RH  045%=      5-min Rain = 0
KGO1 080142Z 14010KT 29/16 A3001 RMK A01 T02850156  RH  046%=      5-min Rain = 0
KGO1 080143Z 14008KT 28/16 A3001 RMK A01 T02840156  RH  046%=      5-min Rain = 0
KGO1 080144Z 14008KT 28/16 A3001 RMK A01 T02830157  RH  046%=      5-min Rain = 0
KGO1 080145Z 13007KT 28/16 A3001 RMK A01 T02820157  RH  046%=      5-min Rain = 0
KGO1 080146Z 13007KT 28/16 A3001 RMK A01 T02820157  RH  047%=      5-min Rain = 0
KGO1 080147Z 13007KT 28/16 A3001 RMK A01 T02800157  RH  047%=      5-min Rain = 0
KGO1 080148Z 13007KT 28/16 A3001 RMK A01 T02790158  RH  048%=      5-min Rain = 0
KGO1 080149Z 13006KT 28/16 A3001 RMK A01 T02780158  RH  048%=      5-min Rain = 0
KGO1 080150Z 12006KT 28/16 A3001 RMK A01 T02770159  RH  049%=      5-min Rain = 0
KGO1 080151Z 12006KT 27/16 A3001 RMK A01 T02740159  RH  049%=      5-min Rain = 0
KGO1 080152Z 12006KT 27/16 A3001 RMK A01 T02730159  RH  050%=      5-min Rain = 0
KGO1 080153Z 12006KT 27/16 A3001 RMK A01 T02720159  RH  050%=      5-min Rain = 0
KGO1 080154Z 13006KT 27/16 A3001 RMK A01 T02710159  RH  050%=      5-min Rain = 0
KGO1 080155Z 13006KT 27/16 A3001 RMK A01 T02690159  RH  051%=      5-min Rain = 0
KGO1 080156Z 13006KT 27/16 A3001 RMK A01 T02680159  RH  051%=      5-min Rain = 0
KGO1 080157Z 13006KT 27/16 A3001 RMK A01 T02670159  RH  051%=      5-min Rain = 0
KGO1 080158Z 13006KT 27/16 A3001 RMK A01 T02660159  RH  052%=      5-min Rain = 0
KGO1 080159Z 12006KT 27/16 A3001 RMK A01 T02650159  RH  052%=      5-min Rain = 0
KGO1 080200Z 12006KT 26/16 A3001 RMK A01 T02640159  RH  052%=      5-min Rain = 0
KGO1 080201Z 13006KT 26/16 A3001 RMK A01 T02630160  RH  053%=      5-min Rain = 0
KGO1 080202Z 12006KT 26/16 A3001 RMK A01 T02620159  RH  053%=      5-min Rain = 0
KGO1 080203Z 12006KT 26/16 A3001 RMK A01 T02610160  RH  054%=      5-min Rain = 0
KGO1 080204Z 12006KT 26/16 A3001 RMK A01 T02600160  RH  054%=      5-min Rain = 0
KGO1 080205Z 12006KT 26/16 A3001 RMK A01 T02580160  RH  055%=      5-min Rain = 0
KGO1 080206Z 12006KT 26/16 A3001 RMK A01 T02570161  RH  055%=      5-min Rain = 0
KGO1 080207Z 12006KT 26/16 A3001 RMK A01 T02560161  RH  056%=      5-min Rain = 0
KGO1 080208Z 12006KT 26/16 A3001 RMK A01 T02550161  RH  056%=      5-min Rain = 0
KGO1 080209Z 12006KT 25/16 A3001 RMK A01 T02540161  RH  056%=      5-min Rain = 0
KGO1 080210Z 12006KT 25/16 A3001 RMK A01 T02530162  RH  057%=      5-min Rain = 0
KGO1 080211Z 11006KT 25/16 A3001 RMK A01 T02520162  RH  057%=      5-min Rain = 0
KGO1 080212Z 12006KT 25/16 A3001 RMK A01 T02520162  RH  058%=      5-min Rain = 0
KGO1 080213Z 12007KT 25/16 A3001 RMK A01 T02520163  RH  058%=      5-min Rain = 0
KGO1 080214Z 12007KT 25/16 A3001 RMK A01 T02510163  RH  058%=      5-min Rain = 0
KGO1 080215Z 12007KT 25/16 A3001 RMK A01 T02510163  RH  058%=      5-min Rain = 0
KGO1 080216Z 12007KT 25/16 A3001 RMK A01 T02510163  RH  058%=      5-min Rain = 0
KGO1 080217Z 12007KT 25/16 A3001 RMK A01 T02510163  RH  058%=      5-min Rain = 0
KGO1 080218Z 12007KT 25/16 A3002 RMK A01 T02510163  RH  058%=      5-min Rain = 0
KGO1 080219Z 12007KT 25/16 A3002 RMK A01 T02510163  RH  058%=      5-min Rain = 0
KGO1 080220Z 12007KT 25/16 A3002 RMK A01 T02510163  RH  058%=      5-min Rain = 0
KGO1 080221Z 12007KT 25/16 A3002 RMK A01 T02520163  RH  058%=      5-min Rain = 0
KGO1 080222Z 12007KT 25/16 A3002 RMK A01 T02520163  RH  058%=      5-min Rain = 0
KGO1 080223Z 12007KT 25/16 A3002 RMK A01 T02520163  RH  058%=      5-min Rain = 0
KGO1 080224Z 12007KT 25/16 A3002 RMK A01 T02530163  RH  058%=      5-min Rain = 0
KGO1 080225Z 12007KT 25/16 A3002 RMK A01 T02530163  RH  057%=      5-min Rain = 0
KGO1 080226Z 12008KT 25/16 A3002 RMK A01 T02530163  RH  058%=      5-min Rain = 0
KGO1 080227Z 12008KT 25/16 A3002 RMK A01 T02530164  RH  058%=      5-min Rain = 0
KGO1 080228Z 12008KT 25/16 A3002 RMK A01 T02520164  RH  058%=      5-min Rain = 0
KGO1 080229Z 12008KT 25/16 A3002 RMK A01 T02510163  RH  058%=      5-min Rain = 0
KGO1 080230Z 12007KT 25/16 A3002 RMK A01 T02510164  RH  058%=      5-min Rain = 0
KGO1 080231Z 12007KT 25/16 A3002 RMK A01 T02510164  RH  058%=      5-min Rain = 0
KGO1 080232Z 12007KT 25/16 A3002 RMK A01 T02510164  RH  059%=      5-min Rain = 0
KGO1 080233Z 12007KT 25/16 A3002 RMK A01 T02500164  RH  059%=      5-min Rain = 0
KGO1 080234Z 12006KT 25/16 A3002 RMK A01 T02500164  RH  059%=      5-min Rain = 0
KGO1 080235Z 12006KT 25/16 A3002 RMK A01 T02490164  RH  059%=      5-min Rain = 0
KGO1 080236Z 12006KT 25/16 A3002 RMK A01 T02480164  RH  060%=      5-min Rain = 0
KGO1 080237Z 12006KT 25/16 A3002 RMK A01 T02470164  RH  060%=      5-min Rain = 0
KGO1 080238Z 12006KT 25/17 A3002 RMK A01 T02470165  RH  060%=      5-min Rain = 0
KGO1 080239Z 12006KT 25/17 A3002 RMK A01 T02470165  RH  060%=      5-min Rain = 0
KGO1 080240Z 12006KT 25/17 A3002 RMK A01 T02460165  RH  060%=      5-min Rain = 0
KGO1 080241Z 12006KT 25/17 A3002 RMK A01 T02460165  RH  061%=      5-min Rain = 0
KGO1 080242Z 12007KT 25/17 A3002 RMK A01 T02460165  RH  061%=      5-min Rain = 0
KGO1 080243Z 12007KT 25/17 A3002 RMK A01 T02470165  RH  060%=      5-min Rain = 0
KGO1 080244Z 12006KT 25/17 A3002 RMK A01 T02480166  RH  060%=      5-min Rain = 0
KGO1 080245Z 12007KT 25/17 A3002 RMK A01 T02480166  RH  060%=      5-min Rain = 0
KGO1 080246Z 12007KT 25/17 A3002 RMK A01 T02480166  RH  060%=      5-min Rain = 0
KGO1 080247Z 12007KT 25/17 A3002 RMK A01 T02480166  RH  060%=      5-min Rain = 0
KGO1 080248Z 12007KT 25/17 A3002 RMK A01 T02480166  RH  060%=      5-min Rain = 0
KGO1 080249Z 12007KT 25/17 A3002 RMK A01 T02490167  RH  060%=      5-min Rain = 0
KGO1 080250Z 12008KT 25/17 A3003 RMK A01 T02500167  RH  060%=      5-min Rain = 0
KGO1 080251Z 12008KT 25/17 A3003 RMK A01 T02500166  RH  060%=      5-min Rain = 0
KGO1 080252Z 12008KT 25/17 A3003 RMK A01 T02530167  RH  059%=      5-min Rain = 0
KGO1 080253Z 12009KT 25/17 A3003 RMK A01 T02540167  RH  058%=      5-min Rain = 0
KGO1 080254Z 12009KT 26/17 A3003 RMK A01 T02550167  RH  058%=      5-min Rain = 0
KGO1 080255Z 12008KT 26/17 A3003 RMK A01 T02550167  RH  058%=      5-min Rain = 0
KGO1 080256Z 12009KT 26/17 A3003 RMK A01 T02550167  RH  058%=      5-min Rain = 0
KGO1 080257Z 12009KT 26/17 A3003 RMK A01 T02550168  RH  058%=      5-min Rain = 0
KGO1 080258Z 12009KT 26/17 A3003 RMK A01 T02550168  RH  058%=      5-min Rain = 0
KGO1 080259Z 12009KT 26/17 A3003 RMK A01 T02550168  RH  058%=      5-min Rain = 0
KGO1 080300Z 12009KT 26/17 A3003 RMK A01 T02560168  RH  058%=      5-min Rain = 0
KGO1 080301Z 12009KT 26/17 A3003 RMK A01 T02550168  RH  058%=      5-min Rain = 0
KGO1 080302Z 12009KT 26/17 A3003 RMK A01 T02560168  RH  058%=      5-min Rain = 0
KGO1 080303Z 12008KT 26/17 A3003 RMK A01 T02560169  RH  058%=      5-min Rain = 0
KGO1 080304Z 12008KT 26/17 A3003 RMK A01 T02560169  RH  059%=      5-min Rain = 0
KGO1 080305Z 13009KT 26/17 A3003 RMK A01 T02560169  RH  059%=      5-min Rain = 0
KGO1 080306Z 13008KT 26/17 A3003 RMK A01 T02550169  RH  059%=      5-min Rain = 0
KGO1 080307Z 12009KT 26/17 A3003 RMK A01 T02560169  RH  059%=      5-min Rain = 0
KGO1 080308Z 12009KT 26/17 A3003 RMK A01 T02560170  RH  059%=      5-min Rain = 0
KGO1 080309Z 12009KT 26/17 A3003 RMK A01 T02560170  RH  059%=      5-min Rain = 0
KGO1 080310Z 13008KT 26/17 A3003 RMK A01 T02560170  RH  059%=      5-min Rain = 0
KGO1 080311Z 13009KT 26/17 A3003 RMK A01 T02550170  RH  059%=      5-min Rain = 0
KGO1 080312Z 12009KT 26/17 A3003 RMK A01 T02550170  RH  059%=      5-min Rain = 0
KGO1 080313Z 13009KT 26/17 A3003 RMK A01 T02550170  RH  059%=      5-min Rain = 0
KGO1 080314Z 13009KT 26/17 A3003 RMK A01 T02550170  RH  059%=      5-min Rain = 0
KGO1 080315Z 13009KT 26/17 A3003 RMK A01 T02550170  RH  059%=      5-min Rain = 0
KGO1 080316Z 13008KT 26/17 A3003 RMK A01 T02550170  RH  059%=      5-min Rain = 0
KGO1 080317Z 13009KT 25/17 A3003 RMK A01 T02540170  RH  060%=      5-min Rain = 0
KGO1 080318Z 13009KT 25/17 A3003 RMK A01 T02540170  RH  060%=      5-min Rain = 0
KGO1 080319Z 13009KT 25/17 A3003 RMK A01 T02540170  RH  060%=      5-min Rain = 0
KGO1 080320Z 13009KT 25/17 A3003 RMK A01 T02540170  RH  060%=      5-min Rain = 0
KGO1 080321Z 13009KT 25/17 A3003 RMK A01 T02540170  RH  060%=      5-min Rain = 0
KGO1 080322Z 13009KT 25/17 A3003 RMK A01 T02540170  RH  060%=      5-min Rain = 0
KGO1 080323Z 13009KT 25/17 A3003 RMK A01 T02540170  RH  060%=      5-min Rain = 0
KGO1 080324Z 13009KT 25/17 A3003 RMK A01 T02540170  RH  060%=      5-min Rain = 0
KGO1 080325Z 13009KT 25/17 A3003 RMK A01 T02540171  RH  060%=      5-min Rain = 0
KGO1 080326Z 13009KT 25/17 A3003 RMK A01 T02540171  RH  060%=      5-min Rain = 0
KGO1 080327Z 13009KT 25/17 A3003 RMK A01 T02530170  RH  060%=      5-min Rain = 0
KGO1 080328Z 13009KT 25/17 A3003 RMK A01 T02530171  RH  060%=      5-min Rain = 0
KGO1 080329Z 13009KT 25/17 A3003 RMK A01 T02520171  RH  060%=      5-min Rain = 0
KGO1 080330Z 13009KT 25/17 A3002 RMK A01 T02520171  RH  061%=      5-min Rain = 0
KGO1 080331Z 13010KT 25/17 A3002 RMK A01 T02520171  RH  061%=      5-min Rain = 0
KGO1 080332Z 13010KT 25/17 A3002 RMK A01 T02510171  RH  061%=      5-min Rain = 0
KGO1 080333Z 13010KT 25/17 A3002 RMK A01 T02520171  RH  061%=      5-min Rain = 0
KGO1 080334Z 13010KT 25/17 A3002 RMK A01 T02520171  RH  061%=      5-min Rain = 0
KGO1 080335Z 13010KT 25/17 A3002 RMK A01 T02510171  RH  061%=      5-min Rain = 0
KGO1 080336Z 13009KT 25/17 A3002 RMK A01 T02510171  RH  061%=      5-min Rain = 0
KGO1 080337Z 13010KT 25/17 A3002 RMK A01 T02510171  RH  061%=      5-min Rain = 0
KGO1 080338Z 13010KT 25/17 A3002 RMK A01 T02520172  RH  061%=      5-min Rain = 0
KGO1 080339Z 13009KT 25/17 A3002 RMK A01 T02520172  RH  061%=      5-min Rain = 0
KGO1 080340Z 13008KT 25/17 A3003 RMK A01 T02510172  RH  061%=      5-min Rain = 0
KGO1 080341Z 13009KT 25/17 A3003 RMK A01 T02510172  RH  061%=      5-min Rain = 0
KGO1 080342Z 13008KT 25/17 A3003 RMK A01 T02510172  RH  061%=      5-min Rain = 0
KGO1 080343Z 13006KT 25/17 A3003 RMK A01 T02500172  RH  062%=      5-min Rain = 0
KGO1 080344Z 13006KT 25/17 A3003 RMK A01 T02500172  RH  062%=      5-min Rain = 0
KGO1 080345Z 13007KT 25/17 A3003 RMK A01 T02490172  RH  062%=      5-min Rain = 0
KGO1 080346Z 13007KT 25/17 A3003 RMK A01 T02490172  RH  062%=      5-min Rain = 0
KGO1 080347Z 13007KT 25/17 A3003 RMK A01 T02490172  RH  062%=      5-min Rain = 0
KGO1 080348Z 13008KT 25/17 A3003 RMK A01 T02490172  RH  063%=      5-min Rain = 0
KGO1 080349Z 13007KT 25/17 A3003 RMK A01 T02480173  RH  063%=      5-min Rain = 0
KGO1 080350Z 13008KT 25/17 A3003 RMK A01 T02480173  RH  063%=      5-min Rain = 0
KGO1 080351Z 13009KT 25/17 A3003 RMK A01 T02480173  RH  063%=      5-min Rain = 0
KGO1 080352Z 13009KT 25/17 A3003 RMK A01 T02480173  RH  063%=      5-min Rain = 0
KGO1 080353Z 13008KT 25/17 A3003 RMK A01 T02480173  RH  063%=      5-min Rain = 0
KGO1 080354Z 13009KT 25/17 A3003 RMK A01 T02480174  RH  063%=      5-min Rain = 0
KGO1 080355Z 13010KT 25/17 A3003 RMK A01 T02480174  RH  063%=      5-min Rain = 0
KGO1 080356Z 13009KT 25/17 A3003 RMK A01 T02480174  RH  063%=      5-min Rain = 0
KGO1 080357Z 13009KT 25/17 A3003 RMK A01 T02490174  RH  063%=      5-min Rain = 0
KGO1 080358Z 13009KT 25/17 A3003 RMK A01 T02490174  RH  063%=      5-min Rain = 0
KGO1 080359Z 13009KT 25/17 A3003 RMK A01 T02480174  RH  063%=      5-min Rain = 0
KGO1 080400Z 13009KT 25/17 A3003 RMK A01 T02480174  RH  063%=      5-min Rain = 0
KGO1 080401Z 13009KT 25/17 A3003 RMK A01 T02480174  RH  063%=      5-min Rain = 0
KGO1 080402Z 13009KT 25/17 A3003 RMK A01 T02480174  RH  064%=      5-min Rain = 0
KGO1 080403Z 13009KT 25/17 A3003 RMK A01 T02470174  RH  064%=      5-min Rain = 0
KGO1 080404Z 13010KT 25/17 A3003 RMK A01 T02480174  RH  064%=      5-min Rain = 0
KGO1 080405Z 13009KT 25/17 A3003 RMK A01 T02480174  RH  064%=      5-min Rain = 0
KGO1 080406Z 13008KT 25/17 A3003 RMK A01 T02480174  RH  063%=      5-min Rain = 0
KGO1 080407Z 13008KT 25/17 A3004 RMK A01 T02480174  RH  063%=      5-min Rain = 0
KGO1 080408Z 13007KT 25/18 A3004 RMK A01 T02480175  RH  064%=      5-min Rain = 0
KGO1 080409Z 13007KT 25/18 A3004 RMK A01 T02480175  RH  064%=      5-min Rain = 0
KGO1 080410Z 13007KT 25/18 A3004 RMK A01 T02470175  RH  064%=      5-min Rain = 0
KGO1 080411Z 13007KT 25/18 A3004 RMK A01 T02470175  RH  064%=      5-min Rain = 0
KGO1 080412Z 13006KT 25/18 A3004 RMK A01 T02460175  RH  065%=      5-min Rain = 0
KGO1 080413Z 13007KT 25/18 A3004 RMK A01 T02460175  RH  065%=      5-min Rain = 0
KGO1 080414Z 12007KT 25/18 A3004 RMK A01 T02460175  RH  065%=      5-min Rain = 0
KGO1 080415Z 13008KT 25/18 A3004 RMK A01 T02450175  RH  065%=      5-min Rain = 0
KGO1 080416Z 12006KT 25/18 A3004 RMK A01 T02460176  RH  065%=      5-min Rain = 0
KGO1 080417Z 12007KT 25/18 A3004 RMK A01 T02450175  RH  065%=      5-min Rain = 0
KGO1 080418Z 13006KT 24/18 A3004 RMK A01 T02440175  RH  065%=      5-min Rain = 0
KGO1 080419Z 13006KT 24/18 A3004 RMK A01 T02440176  RH  066%=      5-min Rain = 0
KGO1 080420Z 13006KT 24/18 A3004 RMK A01 T02440176  RH  066%=      5-min Rain = 0
KGO1 080421Z 13006KT 24/18 A3004 RMK A01 T02430176  RH  066%=      5-min Rain = 0
KGO1 080422Z 13006KT 24/18 A3004 RMK A01 T02430176  RH  066%=      5-min Rain = 0
KGO1 080423Z 13006KT 24/18 A3004 RMK A01 T02430176  RH  066%=      5-min Rain = 0
KGO1 080424Z 13006KT 24/18 A3004 RMK A01 T02430176  RH  066%=      5-min Rain = 0
KGO1 080425Z 13007KT 24/18 A3004 RMK A01 T02430176  RH  066%=      5-min Rain = 0
KGO1 080426Z 13007KT 24/18 A3004 RMK A01 T02430176  RH  066%=      5-min Rain = 0
KGO1 080427Z 13007KT 24/18 A3004 RMK A01 T02430176  RH  066%=      5-min Rain = 0
KGO1 080428Z 13007KT 24/18 A3004 RMK A01 T02430176  RH  066%=      5-min Rain = 0
KGO1 080429Z 13007KT 24/18 A3004 RMK A01 T02430176  RH  066%=      5-min Rain = 0
KGO1 080430Z 13007KT 24/18 A3004 RMK A01 T02420176  RH  067%=      5-min Rain = 0
KGO1 080431Z 13008KT 24/18 A3004 RMK A01 T02420177  RH  067%=      5-min Rain = 0
KGO1 080432Z 13008KT 24/18 A3004 RMK A01 T02420177  RH  067%=      5-min Rain = 0
KGO1 080433Z 13007KT 24/18 A3004 RMK A01 T02420177  RH  067%=      5-min Rain = 0
KGO1 080434Z 13007KT 24/18 A3004 RMK A01 T02410177  RH  067%=      5-min Rain = 0
KGO1 080435Z 13008KT 24/18 A3004 RMK A01 T02410177  RH  067%=      5-min Rain = 0
KGO1 080436Z 13008KT 24/18 A3004 RMK A01 T02410177  RH  067%=      5-min Rain = 0
KGO1 080437Z 13007KT 24/18 A3004 RMK A01 T02410177  RH  067%=      5-min Rain = 0
KGO1 080438Z 13007KT 24/18 A3004 RMK A01 T02410177  RH  067%=      5-min Rain = 0
KGO1 080439Z 13007KT 24/18 A3005 RMK A01 T02410177  RH  068%=      5-min Rain = 0
KGO1 080440Z 13007KT 24/18 A3005 RMK A01 T02400177  RH  068%=      5-min Rain = 0
KGO1 080441Z 13007KT 24/18 A3005 RMK A01 T02400177  RH  068%=      5-min Rain = 0
KGO1 080442Z 13007KT 24/18 A3005 RMK A01 T02400177  RH  068%=      5-min Rain = 0
KGO1 080443Z 13006KT 24/18 A3005 RMK A01 T02400177  RH  068%=      5-min Rain = 0
KGO1 080444Z 13006KT 24/18 A3005 RMK A01 T02390177  RH  068%=      5-min Rain = 0
KGO1 080445Z 13006KT 24/18 A3005 RMK A01 T02390177  RH  068%=      5-min Rain = 0
KGO1 080446Z 13006KT 24/18 A3005 RMK A01 T02390177  RH  069%=      5-min Rain = 0
KGO1 080447Z 13006KT 24/18 A3005 RMK A01 T02390178  RH  069%=      5-min Rain = 0
KGO1 080448Z 13006KT 24/18 A3005 RMK A01 T02380178  RH  069%=      5-min Rain = 0
KGO1 080449Z 13006KT 24/18 A3005 RMK A01 T02380178  RH  069%=      5-min Rain = 0
KGO1 080450Z 13006KT 24/18 A3005 RMK A01 T02380177  RH  069%=      5-min Rain = 0
KGO1 080451Z 14005KT 24/18 A3005 RMK A01 T02380178  RH  069%=      5-min Rain = 0
KGO1 080452Z 14005KT 24/18 A3005 RMK A01 T02380178  RH  069%=      5-min Rain = 0
KGO1 080453Z 13005KT 24/18 A3005 RMK A01 T02370178  RH  069%=      5-min Rain = 0
KGO1 080454Z 13006KT 24/18 A3005 RMK A01 T02370178  RH  070%=      5-min Rain = 0
KGO1 080455Z 13006KT 24/18 A3005 RMK A01 T02360178  RH  070%=      5-min Rain = 0
KGO1 080456Z 13006KT 24/18 A3005 RMK A01 T02350178  RH  070%=      5-min Rain = 0
KGO1 080457Z 13006KT 24/18 A3005 RMK A01 T02350178  RH  070%=      5-min Rain = 0
KGO1 080458Z 13006KT 23/18 A3005 RMK A01 T02340178  RH  071%=      5-min Rain = 0
KGO1 080459Z 13006KT 23/18 A3005 RMK A01 T02330178  RH  071%=      5-min Rain = 0

Page generated in 0.0782 seconds.